SWR139 VHHH-LSZH
Flight info
| Callsign | SWR139 |
|---|---|
| Flight time | N/A |
| Altitude | 30100 |
| Route | BEKOL A461 SHL W22 TEPID W24 OSNOV G586 QP B330 ELKAL W179 IGNAK/K0937S0950 W179 WFX/K0930S0980 W179 OMBON W195 VIDEK/K0932S0950 W195 LAXAL/K0924S0980 W195 IDOPA W197 ANDIM B215 IBANO G470 AKLAS W192 FKG A368 SALMO/K0902S1040 A368 SARIN/K0902F340 N161 GASBI/N0483F360 N161 LEYLA N644 ADEKI DCT BADIR DCT LAGAS DCT NOLGA UN61 TBN UM11 CRM UL746 ODERO DCT LUGEB DCT NERDI DCT INVED DCT GOTAR DCT ERKIR DCT KPT L856 NEGRA |
| Aircraft | B77W/H-SDE1E2E3FGHIJ2J3J4J5M1RWXY/LB1D1 |
Departure
| Time | N/A |
|---|---|
| Airport | Hong Kong International Airport (VHHH) |
Arrival
| Time | 2026-04-26 10:08 |
|---|---|
| Airport | Zürich Airport (LSZH) |
| Time | Latitude | Longitude | Altitude | Speed | Heading |
|---|---|---|---|---|---|
| 2026-04-26 01:57 | 45.26708 | 86.01868 | 32699 ft | 447 kts | 308° |
| 2026-04-26 01:58 | 45.28616 | 85.98382 | 32695 ft | 447 kts | 308° |
| 2026-04-26 01:58 | 45.32410 | 85.91442 | 32716 ft | 446 kts | 308° |
| 2026-04-26 01:59 | 45.36224 | 85.84446 | 32702 ft | 447 kts | 308° |
| 2026-04-26 01:59 | 45.40017 | 85.77473 | 32699 ft | 447 kts | 308° |
| 2026-04-26 02:00 | 45.43821 | 85.70462 | 32699 ft | 447 kts | 308° |
| 2026-04-26 02:00 | 45.47613 | 85.63455 | 32702 ft | 446 kts | 308° |
| 2026-04-26 02:01 | 45.51392 | 85.56454 | 32710 ft | 447 kts | 308° |
| 2026-04-26 02:01 | 45.55183 | 85.49414 | 32698 ft | 447 kts | 308° |
| 2026-04-26 02:02 | 45.58955 | 85.42392 | 32699 ft | 446 kts | 308° |
| 2026-04-26 02:02 | 45.62716 | 85.35373 | 32699 ft | 446 kts | 308° |
| 2026-04-26 02:03 | 45.66498 | 85.28295 | 32684 ft | 446 kts | 308° |
| 2026-04-26 02:03 | 45.70239 | 85.21283 | 32702 ft | 445 kts | 308° |
| 2026-04-26 02:03 | 45.72124 | 85.17758 | 32826 ft | 446 kts | 309° |
| 2026-04-26 02:04 | 45.74013 | 85.14231 | 33158 ft | 445 kts | 309° |
| 2026-04-26 02:04 | 45.75891 | 85.10724 | 33555 ft | 442 kts | 309° |
| 2026-04-26 02:04 | 45.77758 | 85.07233 | 33891 ft | 440 kts | 309° |
| 2026-04-26 02:04 | 45.79622 | 85.03743 | 34174 ft | 440 kts | 308° |
| 2026-04-26 02:05 | 45.81463 | 85.00290 | 34228 ft | 442 kts | 308° |
| 2026-04-26 02:05 | 45.85195 | 84.93273 | 34300 ft | 441 kts | 308° |
| 2026-04-26 02:06 | 45.88910 | 84.86270 | 34281 ft | 439 kts | 309° |
| 2026-04-26 02:06 | 45.92569 | 84.79353 | 34297 ft | 436 kts | 308° |
| 2026-04-26 02:07 | 45.96235 | 84.72409 | 34309 ft | 435 kts | 308° |
| 2026-04-26 02:07 | 45.99902 | 84.65447 | 34311 ft | 435 kts | 308° |
| 2026-04-26 02:08 | 46.03528 | 84.58545 | 34310 ft | 436 kts | 308° |
| 2026-04-26 02:08 | 46.07198 | 84.51540 | 34317 ft | 437 kts | 308° |
| 2026-04-26 02:09 | 46.10843 | 84.44566 | 34319 ft | 438 kts | 308° |
| 2026-04-26 02:09 | 46.14517 | 84.37519 | 34318 ft | 439 kts | 309° |
| 2026-04-26 02:10 | 46.18186 | 84.30463 | 34315 ft | 439 kts | 309° |
| 2026-04-26 02:10 | 46.21829 | 84.23440 | 34317 ft | 439 kts | 309° |
| 2026-04-26 02:11 | 46.25498 | 84.16351 | 34317 ft | 438 kts | 308° |
| 2026-04-26 02:11 | 46.29119 | 84.09317 | 34323 ft | 437 kts | 308° |
| 2026-04-26 02:12 | 46.32741 | 84.02237 | 34324 ft | 437 kts | 308° |
| 2026-04-26 02:12 | 46.36337 | 83.95191 | 34305 ft | 437 kts | 308° |
| 2026-04-26 02:13 | 46.39945 | 83.88103 | 34308 ft | 436 kts | 308° |
| 2026-04-26 02:13 | 46.43550 | 83.81008 | 34314 ft | 436 kts | 308° |
| 2026-04-26 02:14 | 46.47126 | 83.73951 | 34315 ft | 436 kts | 308° |
| 2026-04-26 02:14 | 46.50705 | 83.66869 | 34310 ft | 436 kts | 308° |
| 2026-04-26 02:15 | 46.54296 | 83.59746 | 34312 ft | 436 kts | 308° |
| 2026-04-26 02:15 | 46.57885 | 83.52610 | 34291 ft | 436 kts | 308° |
| 2026-04-26 02:16 | 46.61445 | 83.45511 | 34307 ft | 436 kts | 308° |
| 2026-04-26 02:16 | 46.65010 | 83.38387 | 34317 ft | 437 kts | 308° |
| 2026-04-26 02:17 | 46.68376 | 83.30985 | 34313 ft | 438 kts | 304° |
| 2026-04-26 02:17 | 46.71622 | 83.23429 | 34313 ft | 439 kts | 304° |
| 2026-04-26 02:18 | 46.74859 | 83.15902 | 34316 ft | 440 kts | 304° |
| 2026-04-26 02:18 | 46.78127 | 83.08317 | 34313 ft | 441 kts | 304° |
| 2026-04-26 02:19 | 46.81379 | 83.00759 | 34314 ft | 441 kts | 304° |
| 2026-04-26 02:19 | 46.84577 | 82.93073 | 34293 ft | 444 kts | 299° |
| 2026-04-26 02:20 | 46.86777 | 82.84639 | 34296 ft | 449 kts | 289° |
| 2026-04-26 02:20 | 46.87951 | 82.75592 | 34223 ft | 454 kts | 282° |
| 2026-04-26 02:21 | 46.88832 | 82.66492 | 34208 ft | 454 kts | 282° |
| 2026-04-26 02:21 | 46.89730 | 82.57348 | 34201 ft | 453 kts | 282° |
| 2026-04-26 02:22 | 46.90645 | 82.48230 | 34211 ft | 452 kts | 282° |
| 2026-04-26 02:22 | 46.91557 | 82.39151 | 34211 ft | 453 kts | 282° |
| 2026-04-26 02:23 | 46.92467 | 82.30023 | 34200 ft | 453 kts | 282° |
| 2026-04-26 02:23 | 46.93364 | 82.20931 | 34179 ft | 453 kts | 282° |
| 2026-04-26 02:24 | 46.94108 | 82.13320 | 34195 ft | 454 kts | 282° |
| 2026-04-26 02:24 | 46.95000 | 82.04143 | 34204 ft | 454 kts | 282° |
| 2026-04-26 02:25 | 46.95879 | 81.95022 | 34195 ft | 455 kts | 281° |
| 2026-04-26 02:25 | 46.96753 | 81.85789 | 34193 ft | 456 kts | 281° |
| 2026-04-26 02:26 | 46.97599 | 81.76644 | 34165 ft | 456 kts | 281° |
| 2026-04-26 02:26 | 46.98445 | 81.67427 | 34185 ft | 456 kts | 281° |
| 2026-04-26 02:27 | 46.99281 | 81.58252 | 34193 ft | 456 kts | 281° |
| 2026-04-26 02:27 | 47.00113 | 81.49048 | 34189 ft | 456 kts | 281° |
| 2026-04-26 02:28 | 47.00942 | 81.39801 | 34190 ft | 455 kts | 281° |
| 2026-04-26 02:28 | 47.01759 | 81.30590 | 34189 ft | 455 kts | 281° |
| 2026-04-26 02:29 | 47.02564 | 81.21442 | 34183 ft | 455 kts | 281° |
| 2026-04-26 02:29 | 47.03369 | 81.12193 | 34181 ft | 455 kts | 281° |
| 2026-04-26 02:30 | 47.04161 | 81.03033 | 34188 ft | 455 kts | 281° |
| 2026-04-26 02:30 | 47.04951 | 80.93799 | 34179 ft | 455 kts | 280° |
| 2026-04-26 02:31 | 47.05728 | 80.84638 | 34174 ft | 454 kts | 280° |
| 2026-04-26 02:31 | 47.06502 | 80.75435 | 34181 ft | 454 kts | 280° |
| 2026-04-26 02:32 | 47.07269 | 80.66228 | 34176 ft | 454 kts | 280° |
| 2026-04-26 02:32 | 47.08024 | 80.57081 | 34177 ft | 454 kts | 280° |
| 2026-04-26 02:33 | 47.08776 | 80.47868 | 34161 ft | 455 kts | 280° |
| 2026-04-26 02:33 | 47.09523 | 80.38623 | 34174 ft | 455 kts | 280° |
| 2026-04-26 02:34 | 47.10258 | 80.29439 | 34177 ft | 455 kts | 279° |
| 2026-04-26 02:34 | 47.10991 | 80.20177 | 34176 ft | 456 kts | 279° |
| 2026-04-26 02:35 | 47.11716 | 80.10916 | 34169 ft | 456 kts | 279° |
| 2026-04-26 02:35 | 47.12430 | 80.01701 | 34174 ft | 456 kts | 279° |
| 2026-04-26 02:36 | 47.13144 | 79.92410 | 34171 ft | 456 kts | 279° |
| 2026-04-26 02:36 | 47.13846 | 79.83187 | 34162 ft | 456 kts | 279° |
| 2026-04-26 02:37 | 47.14555 | 79.73911 | 34178 ft | 456 kts | 279° |
| 2026-04-26 02:37 | 47.15256 | 79.64691 | 34154 ft | 456 kts | 279° |
| 2026-04-26 02:38 | 47.15951 | 79.55433 | 34167 ft | 455 kts | 278° |
| 2026-04-26 02:38 | 47.16637 | 79.46180 | 34175 ft | 454 kts | 278° |
| 2026-04-26 02:39 | 47.17311 | 79.36988 | 34172 ft | 454 kts | 278° |
| 2026-04-26 02:39 | 47.17982 | 79.27734 | 34163 ft | 453 kts | 278° |
| 2026-04-26 02:40 | 47.18642 | 79.18548 | 34147 ft | 453 kts | 277° |
| 2026-04-26 02:40 | 47.19293 | 79.09313 | 34162 ft | 453 kts | 277° |
| 2026-04-26 02:41 | 47.19924 | 79.00149 | 34159 ft | 453 kts | 277° |
| 2026-04-26 02:41 | 47.20552 | 78.90920 | 34161 ft | 453 kts | 277° |
| 2026-04-26 02:42 | 47.21173 | 78.81715 | 34166 ft | 454 kts | 277° |
| 2026-04-26 02:42 | 47.21789 | 78.72475 | 34152 ft | 454 kts | 277° |
| 2026-04-26 02:43 | 47.22697 | 78.58628 | 34151 ft | 454 kts | 276° |
| 2026-04-26 02:43 | 47.23296 | 78.49354 | 34148 ft | 454 kts | 276° |
| 2026-04-26 02:44 | 47.23887 | 78.40089 | 34140 ft | 454 kts | 276° |
| 2026-04-26 02:44 | 47.24466 | 78.30883 | 34124 ft | 453 kts | 276° |
| 2026-04-26 02:45 | 47.25041 | 78.21641 | 34137 ft | 453 kts | 276° |
| 2026-04-26 02:45 | 47.25605 | 78.12446 | 34130 ft | 452 kts | 276° |
| 2026-04-26 02:46 | 47.26165 | 78.03191 | 34133 ft | 452 kts | 276° |
| 2026-04-26 02:46 | 47.26713 | 77.94009 | 34127 ft | 452 kts | 276° |
| 2026-04-26 02:47 | 47.27258 | 77.84755 | 34127 ft | 452 kts | 276° |
| 2026-04-26 02:47 | 47.27792 | 77.75554 | 34125 ft | 452 kts | 276° |
| 2026-04-26 02:48 | 47.28318 | 77.66354 | 34125 ft | 452 kts | 276° |
| 2026-04-26 02:48 | 47.28840 | 77.57109 | 34124 ft | 452 kts | 276° |
| 2026-04-26 02:49 | 47.29355 | 77.47845 | 34115 ft | 452 kts | 276° |
| 2026-04-26 02:49 | 47.29859 | 77.38655 | 34116 ft | 452 kts | 276° |
| 2026-04-26 02:50 | 47.30359 | 77.29409 | 34119 ft | 452 kts | 276° |
| 2026-04-26 02:50 | 47.30851 | 77.20146 | 34119 ft | 452 kts | 276° |
| 2026-04-26 02:51 | 47.31336 | 77.10916 | 34119 ft | 452 kts | 275° |
| 2026-04-26 02:51 | 47.31971 | 77.01754 | 34116 ft | 451 kts | 279° |
| 2026-04-26 02:52 | 47.32915 | 76.92604 | 34110 ft | 450 kts | 279° |
| 2026-04-26 02:52 | 47.33859 | 76.83498 | 34114 ft | 450 kts | 279° |
| 2026-04-26 02:53 | 47.34782 | 76.74399 | 34106 ft | 450 kts | 279° |
| 2026-04-26 02:53 | 47.35697 | 76.65230 | 34110 ft | 450 kts | 279° |
| 2026-04-26 02:54 | 47.36596 | 76.56121 | 34103 ft | 450 kts | 279° |
| 2026-04-26 02:54 | 47.37492 | 76.46967 | 34100 ft | 450 kts | 279° |
| 2026-04-26 02:55 | 47.38382 | 76.37792 | 34098 ft | 450 kts | 279° |
| 2026-04-26 02:55 | 47.39259 | 76.28687 | 34099 ft | 450 kts | 279° |
| 2026-04-26 02:56 | 47.40133 | 76.19523 | 34106 ft | 449 kts | 278° |
| 2026-04-26 02:56 | 47.40994 | 76.10428 | 34101 ft | 448 kts | 278° |
| 2026-04-26 02:57 | 47.41846 | 76.01330 | 34091 ft | 446 kts | 278° |
| 2026-04-26 02:57 | 47.42690 | 75.92251 | 34081 ft | 444 kts | 278° |
| 2026-04-26 02:58 | 47.43518 | 75.83266 | 34094 ft | 443 kts | 278° |
| 2026-04-26 02:58 | 47.44344 | 75.74225 | 34089 ft | 443 kts | 278° |
| 2026-04-26 02:59 | 47.45158 | 75.65233 | 34085 ft | 443 kts | 277° |
| 2026-04-26 02:59 | 47.45970 | 75.56181 | 34085 ft | 443 kts | 277° |
| 2026-04-26 03:00 | 47.46771 | 75.47176 | 34085 ft | 443 kts | 277° |
| 2026-04-26 03:00 | 47.47567 | 75.38134 | 34083 ft | 443 kts | 277° |
| 2026-04-26 03:01 | 47.48352 | 75.29130 | 34073 ft | 444 kts | 277° |
| 2026-04-26 03:01 | 47.49138 | 75.20035 | 34084 ft | 444 kts | 276° |
| 2026-04-26 03:02 | 47.49912 | 75.11008 | 34075 ft | 443 kts | 276° |
| 2026-04-26 03:02 | 47.50677 | 75.01994 | 34074 ft | 443 kts | 276° |
| 2026-04-26 03:03 | 47.51436 | 74.92954 | 34072 ft | 442 kts | 276° |
| 2026-04-26 03:03 | 47.52188 | 74.83916 | 34063 ft | 442 kts | 276° |
| 2026-04-26 03:04 | 47.52928 | 74.74944 | 34066 ft | 441 kts | 276° |
| 2026-04-26 03:04 | 47.53666 | 74.65899 | 34058 ft | 441 kts | 276° |
| 2026-04-26 03:05 | 47.54389 | 74.56942 | 34051 ft | 440 kts | 276° |
| 2026-04-26 03:05 | 47.55108 | 74.47958 | 34050 ft | 440 kts | 275° |
| 2026-04-26 03:06 | 47.55822 | 74.38936 | 34039 ft | 440 kts | 275° |
| 2026-04-26 03:06 | 47.56529 | 74.29929 | 34036 ft | 439 kts | 275° |
| 2026-04-26 03:07 | 47.57222 | 74.20977 | 34025 ft | 439 kts | 274° |
| 2026-04-26 03:07 | 47.57910 | 74.12026 | 34021 ft | 438 kts | 274° |
| 2026-04-26 03:08 | 47.58592 | 74.03052 | 34020 ft | 437 kts | 274° |
| 2026-04-26 03:08 | 47.59264 | 73.94113 | 34021 ft | 437 kts | 274° |
| 2026-04-26 03:09 | 47.59931 | 73.85153 | 34024 ft | 437 kts | 274° |
| 2026-04-26 03:09 | 47.60586 | 73.76247 | 34018 ft | 436 kts | 273° |
| 2026-04-26 03:10 | 47.61238 | 73.67288 | 34022 ft | 436 kts | 273° |
| 2026-04-26 03:10 | 47.61880 | 73.58377 | 34017 ft | 436 kts | 273° |
| 2026-04-26 03:11 | 47.62410 | 73.50937 | 34014 ft | 436 kts | 273° |
| 2026-04-26 03:11 | 47.63041 | 73.42002 | 34017 ft | 436 kts | 273° |
| 2026-04-26 03:12 | 47.63667 | 73.33029 | 34004 ft | 436 kts | 273° |
| 2026-04-26 03:12 | 47.64281 | 73.24120 | 34005 ft | 436 kts | 272° |
| 2026-04-26 03:13 | 47.64892 | 73.15169 | 33994 ft | 435 kts | 272° |
| 2026-04-26 03:13 | 47.65490 | 73.06290 | 33985 ft | 434 kts | 272° |
| 2026-04-26 03:14 | 47.66084 | 72.97372 | 33994 ft | 433 kts | 272° |
| 2026-04-26 03:14 | 47.66667 | 72.88505 | 33981 ft | 433 kts | 271° |
| 2026-04-26 03:15 | 47.67247 | 72.79589 | 33987 ft | 433 kts | 271° |
| 2026-04-26 03:15 | 47.67815 | 72.70735 | 33986 ft | 433 kts | 271° |
| 2026-04-26 03:16 | 47.68381 | 72.61824 | 33978 ft | 433 kts | 271° |
| 2026-04-26 03:16 | 47.68940 | 72.52891 | 33969 ft | 434 kts | 271° |
| 2026-04-26 03:17 | 47.69492 | 72.43984 | 33973 ft | 434 kts | 271° |
| 2026-04-26 03:17 | 47.70034 | 72.35104 | 33961 ft | 434 kts | 271° |
| 2026-04-26 03:18 | 47.70575 | 72.26141 | 33974 ft | 434 kts | 271° |
| 2026-04-26 03:18 | 47.71108 | 72.17177 | 33951 ft | 434 kts | 271° |
| 2026-04-26 03:19 | 47.71630 | 72.08294 | 33942 ft | 433 kts | 271° |
| 2026-04-26 03:19 | 47.72147 | 71.99381 | 33948 ft | 432 kts | 270° |
| 2026-04-26 03:20 | 47.72653 | 71.90531 | 33941 ft | 431 kts | 270° |
| 2026-04-26 03:20 | 47.73152 | 71.81662 | 33943 ft | 430 kts | 270° |
| 2026-04-26 03:21 | 47.73548 | 71.72819 | 33937 ft | 429 kts | 269° |
| 2026-04-26 03:21 | 47.73897 | 71.63989 | 33929 ft | 429 kts | 269° |
| 2026-04-26 03:22 | 47.74249 | 71.55101 | 33935 ft | 430 kts | 268° |
| 2026-04-26 03:22 | 47.74602 | 71.46263 | 33909 ft | 431 kts | 268° |
| 2026-04-26 03:23 | 47.74953 | 71.37352 | 33912 ft | 431 kts | 268° |
| 2026-04-26 03:23 | 47.75297 | 71.28462 | 33899 ft | 432 kts | 268° |
| 2026-04-26 03:24 | 47.75636 | 71.19521 | 33901 ft | 431 kts | 268° |
| 2026-04-26 03:24 | 47.75965 | 71.10663 | 33893 ft | 432 kts | 268° |
| 2026-04-26 03:25 | 47.76289 | 71.01733 | 33887 ft | 432 kts | 268° |
| 2026-04-26 03:25 | 47.76605 | 70.92848 | 33879 ft | 432 kts | 268° |
| 2026-04-26 03:26 | 47.76916 | 70.83901 | 33875 ft | 433 kts | 268° |
| 2026-04-26 03:26 | 47.77220 | 70.74953 | 33877 ft | 432 kts | 268° |
| 2026-04-26 03:27 | 47.77517 | 70.66064 | 33888 ft | 433 kts | 267° |
| 2026-04-26 03:27 | 47.77807 | 70.57123 | 33862 ft | 431 kts | 267° |
| 2026-04-26 03:28 | 47.78088 | 70.48264 | 33859 ft | 430 kts | 267° |
| 2026-04-26 03:28 | 47.78362 | 70.39374 | 33847 ft | 429 kts | 267° |
| 2026-04-26 03:29 | 47.78627 | 70.30574 | 33845 ft | 428 kts | 267° |
| 2026-04-26 03:29 | 47.78888 | 70.21712 | 33874 ft | 428 kts | 266° |
| 2026-04-26 03:30 | 47.79140 | 70.12908 | 33847 ft | 427 kts | 266° |
| 2026-04-26 03:30 | 47.79387 | 70.04073 | 33831 ft | 425 kts | 266° |
| 2026-04-26 03:31 | 47.79624 | 69.95343 | 33825 ft | 423 kts | 266° |
| 2026-04-26 03:31 | 47.79854 | 69.86583 | 33828 ft | 422 kts | 266° |
| 2026-04-26 03:32 | 47.80077 | 69.77869 | 33852 ft | 421 kts | 265° |
| 2026-04-26 03:32 | 47.80292 | 69.69174 | 33823 ft | 422 kts | 265° |
| 2026-04-26 03:33 | 47.80501 | 69.60485 | 33818 ft | 422 kts | 265° |
| 2026-04-26 03:33 | 47.80704 | 69.51749 | 33816 ft | 422 kts | 265° |
| 2026-04-26 03:34 | 47.80900 | 69.43057 | 33822 ft | 422 kts | 265° |
| 2026-04-26 03:34 | 47.81091 | 69.34327 | 33820 ft | 422 kts | 265° |
| 2026-04-26 03:35 | 47.81275 | 69.25553 | 33826 ft | 423 kts | 265° |
| 2026-04-26 03:35 | 47.81453 | 69.16792 | 33815 ft | 423 kts | 265° |
| 2026-04-26 03:36 | 47.81623 | 69.08079 | 33847 ft | 424 kts | 265° |
| 2026-04-26 03:36 | 47.81788 | 68.99293 | 33826 ft | 424 kts | 265° |
| 2026-04-26 03:37 | 47.81947 | 68.90521 | 33824 ft | 424 kts | 265° |
| 2026-04-26 03:37 | 47.82027 | 68.81727 | 33827 ft | 423 kts | 262° |
| 2026-04-26 03:38 | 47.81350 | 68.73123 | 33832 ft | 419 kts | 257° |
| 2026-04-26 03:38 | 47.80542 | 68.64532 | 33823 ft | 421 kts | 257° |
| 2026-04-26 03:39 | 47.79743 | 68.55873 | 33825 ft | 422 kts | 257° |
| 2026-04-26 03:39 | 47.78942 | 68.47218 | 33825 ft | 422 kts | 257° |
| 2026-04-26 03:40 | 47.78137 | 68.38607 | 33821 ft | 423 kts | 257° |
| 2026-04-26 03:40 | 47.77318 | 68.29925 | 33821 ft | 423 kts | 257° |
| 2026-04-26 03:41 | 47.76496 | 68.21278 | 33818 ft | 424 kts | 257° |
| 2026-04-26 03:41 | 47.75660 | 68.12565 | 33816 ft | 424 kts | 257° |
| 2026-04-26 03:42 | 47.74823 | 68.03909 | 33820 ft | 424 kts | 257° |
| 2026-04-26 03:42 | 47.73982 | 67.95273 | 33826 ft | 424 kts | 257° |
| 2026-04-26 03:43 | 47.73129 | 67.86587 | 33826 ft | 424 kts | 257° |
| 2026-04-26 03:43 | 47.72277 | 67.77977 | 33832 ft | 423 kts | 257° |
| 2026-04-26 03:44 | 47.71129 | 67.69423 | 33834 ft | 421 kts | 253° |
| 2026-04-26 03:44 | 47.69863 | 67.60976 | 33833 ft | 421 kts | 253° |
| 2026-04-26 03:45 | 47.68591 | 67.52478 | 33835 ft | 422 kts | 253° |
| 2026-04-26 03:45 | 47.67313 | 67.43932 | 33857 ft | 423 kts | 253° |
| 2026-04-26 03:46 | 47.66038 | 67.35442 | 33857 ft | 424 kts | 253° |
| 2026-04-26 03:47 | 47.64100 | 67.22609 | 33857 ft | 424 kts | 253° |
| 2026-04-26 03:47 | 47.62812 | 67.14143 | 33870 ft | 423 kts | 253° |
| 2026-04-26 03:48 | 47.61507 | 67.05609 | 33884 ft | 423 kts | 253° |
| 2026-04-26 03:48 | 47.60206 | 66.97149 | 33886 ft | 423 kts | 253° |
| 2026-04-26 03:49 | 47.58891 | 66.88643 | 33901 ft | 423 kts | 253° |
| 2026-04-26 03:49 | 47.57571 | 66.80143 | 33936 ft | 422 kts | 253° |
| 2026-04-26 03:50 | 47.56252 | 66.71695 | 33930 ft | 424 kts | 253° |
| 2026-04-26 03:50 | 47.54869 | 66.63191 | 33939 ft | 423 kts | 252° |
| 2026-04-26 03:51 | 47.53463 | 66.54729 | 33933 ft | 423 kts | 252° |
| 2026-04-26 03:51 | 47.52066 | 66.46324 | 33951 ft | 422 kts | 252° |
| 2026-04-26 03:52 | 47.50658 | 66.37870 | 33977 ft | 421 kts | 253° |
| 2026-04-26 03:52 | 47.49259 | 66.29502 | 33966 ft | 420 kts | 253° |
| 2026-04-26 03:53 | 47.47848 | 66.21107 | 33957 ft | 420 kts | 253° |
| 2026-04-26 03:53 | 47.46433 | 66.12727 | 33982 ft | 419 kts | 253° |
| 2026-04-26 03:54 | 47.45026 | 66.04435 | 33976 ft | 418 kts | 253° |
| 2026-04-26 03:54 | 47.43601 | 65.96074 | 34006 ft | 418 kts | 253° |
| 2026-04-26 03:55 | 47.42183 | 65.87792 | 34007 ft | 417 kts | 253° |
| 2026-04-26 03:55 | 47.40768 | 65.79469 | 34006 ft | 417 kts | 253° |
| 2026-04-26 03:56 | 47.39391 | 65.71140 | 34009 ft | 416 kts | 253° |
| 2026-04-26 03:56 | 47.38022 | 65.62880 | 34021 ft | 416 kts | 253° |
| 2026-04-26 03:57 | 47.36634 | 65.54582 | 34026 ft | 416 kts | 254° |
| 2026-04-26 03:57 | 47.35244 | 65.46318 | 34037 ft | 417 kts | 253° |
| 2026-04-26 03:58 | 47.33833 | 65.37970 | 34031 ft | 418 kts | 253° |
| 2026-04-26 03:58 | 47.32426 | 65.29686 | 34037 ft | 418 kts | 253° |
| 2026-04-26 03:59 | 47.31247 | 65.22775 | 34043 ft | 418 kts | 253° |
| 2026-04-26 03:59 | 47.29822 | 65.14456 | 34050 ft | 418 kts | 254° |
| 2026-04-26 04:00 | 47.28389 | 65.06125 | 34058 ft | 419 kts | 254° |
| 2026-04-26 04:00 | 47.26960 | 64.97855 | 34068 ft | 419 kts | 254° |
| 2026-04-26 04:01 | 47.25517 | 64.89506 | 34074 ft | 420 kts | 254° |
| 2026-04-26 04:01 | 47.24077 | 64.81200 | 34092 ft | 420 kts | 254° |
| 2026-04-26 04:02 | 47.22625 | 64.72860 | 34080 ft | 421 kts | 254° |
| 2026-04-26 04:02 | 47.21172 | 64.64549 | 34075 ft | 420 kts | 254° |
| 2026-04-26 04:03 | 47.19707 | 64.56207 | 34079 ft | 420 kts | 254° |
| 2026-04-26 04:03 | 47.18245 | 64.47937 | 34082 ft | 420 kts | 254° |
| 2026-04-26 04:04 | 47.16769 | 64.39617 | 34089 ft | 420 kts | 254° |
| 2026-04-26 04:04 | 47.15290 | 64.31314 | 34087 ft | 419 kts | 254° |
| 2026-04-26 04:05 | 47.13805 | 64.23008 | 34087 ft | 419 kts | 254° |
| 2026-04-26 04:05 | 47.12323 | 64.14758 | 34095 ft | 419 kts | 254° |
| 2026-04-26 04:06 | 47.10824 | 64.06449 | 34089 ft | 420 kts | 254° |
| 2026-04-26 04:06 | 47.09333 | 63.98227 | 34092 ft | 419 kts | 254° |
| 2026-04-26 04:07 | 47.07825 | 63.89944 | 34094 ft | 419 kts | 254° |
| 2026-04-26 04:07 | 47.06309 | 63.81654 | 34091 ft | 419 kts | 254° |
| 2026-04-26 04:08 | 47.04799 | 63.73441 | 34102 ft | 419 kts | 254° |
| 2026-04-26 04:08 | 47.03273 | 63.65171 | 34085 ft | 419 kts | 254° |
| 2026-04-26 04:09 | 47.01748 | 63.56945 | 34100 ft | 420 kts | 254° |
| 2026-04-26 04:09 | 47.00205 | 63.48663 | 34108 ft | 421 kts | 254° |
| 2026-04-26 04:10 | 46.98654 | 63.40366 | 34114 ft | 422 kts | 254° |
| 2026-04-26 04:10 | 46.97100 | 63.32095 | 34109 ft | 423 kts | 254° |
| 2026-04-26 04:11 | 46.95530 | 63.23774 | 34100 ft | 424 kts | 254° |
| 2026-04-26 04:11 | 46.93961 | 63.15498 | 34121 ft | 424 kts | 254° |
| 2026-04-26 04:12 | 46.92378 | 63.07184 | 34119 ft | 425 kts | 254° |
| 2026-04-26 04:12 | 46.90782 | 62.98833 | 34125 ft | 426 kts | 253° |
| 2026-04-26 04:13 | 46.89179 | 62.90488 | 34155 ft | 426 kts | 253° |
| 2026-04-26 04:13 | 46.87576 | 62.82178 | 34136 ft | 428 kts | 254° |
| 2026-04-26 04:14 | 46.85954 | 62.73800 | 34122 ft | 429 kts | 254° |
| 2026-04-26 04:14 | 46.84321 | 62.65399 | 34132 ft | 429 kts | 254° |
| 2026-04-26 04:15 | 46.82678 | 62.56992 | 34138 ft | 430 kts | 253° |
| 2026-04-26 04:15 | 46.81038 | 62.48647 | 34144 ft | 430 kts | 254° |
| 2026-04-26 04:16 | 46.79377 | 62.40237 | 34149 ft | 430 kts | 254° |
| 2026-04-26 04:16 | 46.77720 | 62.31869 | 34139 ft | 430 kts | 253° |
| 2026-04-26 04:17 | 46.76048 | 62.23461 | 34149 ft | 430 kts | 253° |
| 2026-04-26 04:17 | 46.74385 | 62.15135 | 34148 ft | 430 kts | 253° |
| 2026-04-26 04:18 | 46.72702 | 62.06747 | 34151 ft | 430 kts | 253° |
| 2026-04-26 04:18 | 46.71013 | 61.98361 | 34154 ft | 430 kts | 253° |
| 2026-04-26 04:19 | 46.69330 | 61.90041 | 34154 ft | 431 kts | 253° |
| 2026-04-26 04:19 | 46.67628 | 61.81664 | 34160 ft | 431 kts | 253° |
| 2026-04-26 04:20 | 46.65917 | 61.73277 | 34162 ft | 431 kts | 253° |
| 2026-04-26 04:20 | 46.64214 | 61.64961 | 34166 ft | 431 kts | 253° |
| 2026-04-26 04:21 | 46.62487 | 61.56567 | 34162 ft | 432 kts | 253° |
| 2026-04-26 04:21 | 46.60764 | 61.48228 | 34169 ft | 432 kts | 253° |
| 2026-04-26 04:22 | 46.59037 | 61.39899 | 34169 ft | 432 kts | 253° |
| 2026-04-26 04:22 | 46.57289 | 61.31509 | 34172 ft | 431 kts | 253° |
| 2026-04-26 04:23 | 46.55552 | 61.23204 | 34175 ft | 431 kts | 253° |
| 2026-04-26 04:23 | 46.53798 | 61.14853 | 34174 ft | 431 kts | 253° |
| 2026-04-26 04:24 | 46.52039 | 61.06508 | 34180 ft | 431 kts | 253° |
| 2026-04-26 04:24 | 46.50285 | 60.98225 | 34180 ft | 431 kts | 253° |
| 2026-04-26 04:25 | 46.48516 | 60.89907 | 34185 ft | 431 kts | 253° |
| 2026-04-26 04:25 | 46.46749 | 60.81627 | 34181 ft | 431 kts | 253° |
| 2026-04-26 04:26 | 46.44968 | 60.73316 | 34191 ft | 431 kts | 253° |
| 2026-04-26 04:26 | 46.43189 | 60.65051 | 34190 ft | 430 kts | 253° |
| 2026-04-26 04:27 | 46.41396 | 60.56758 | 34191 ft | 430 kts | 253° |
| 2026-04-26 04:27 | 46.39603 | 60.48485 | 34193 ft | 430 kts | 253° |
| 2026-04-26 04:28 | 46.37810 | 60.40250 | 34196 ft | 429 kts | 253° |
| 2026-04-26 04:28 | 46.36015 | 60.32038 | 34198 ft | 429 kts | 253° |
| 2026-04-26 04:29 | 46.34203 | 60.23787 | 34199 ft | 429 kts | 253° |
| 2026-04-26 04:29 | 46.32398 | 60.15592 | 34204 ft | 429 kts | 253° |
| 2026-04-26 04:30 | 46.30576 | 60.07358 | 34200 ft | 429 kts | 253° |
| 2026-04-26 04:30 | 46.28749 | 59.99128 | 34208 ft | 429 kts | 253° |
| 2026-04-26 04:31 | 46.26929 | 59.90963 | 34210 ft | 429 kts | 253° |
| 2026-04-26 04:31 | 46.25089 | 59.82738 | 34212 ft | 429 kts | 253° |
| 2026-04-26 04:32 | 46.23247 | 59.74530 | 34205 ft | 429 kts | 253° |
| 2026-04-26 04:32 | 46.21405 | 59.66395 | 34218 ft | 428 kts | 253° |
| 2026-04-26 04:33 | 46.19535 | 59.58217 | 34217 ft | 428 kts | 252° |
| 2026-04-26 04:33 | 46.17663 | 59.50054 | 34213 ft | 428 kts | 253° |
| 2026-04-26 04:34 | 46.15801 | 59.41956 | 34225 ft | 428 kts | 253° |
| 2026-04-26 04:34 | 46.13916 | 59.33785 | 34250 ft | 429 kts | 253° |
| 2026-04-26 04:35 | 46.12030 | 59.25640 | 34237 ft | 430 kts | 252° |
| 2026-04-26 04:35 | 46.10120 | 59.17426 | 34227 ft | 431 kts | 252° |
| 2026-04-26 04:36 | 46.08218 | 59.09272 | 34232 ft | 432 kts | 253° |
| 2026-04-26 04:36 | 46.06292 | 59.01048 | 34235 ft | 432 kts | 253° |
| 2026-04-26 04:37 | 46.04364 | 58.92846 | 34230 ft | 432 kts | 253° |
| 2026-04-26 04:37 | 46.02441 | 58.84699 | 34237 ft | 432 kts | 252° |
| 2026-04-26 04:38 | 46.00500 | 58.76503 | 34231 ft | 431 kts | 253° |
| 2026-04-26 04:38 | 45.98559 | 58.68337 | 34238 ft | 430 kts | 253° |
| 2026-04-26 04:39 | 45.96627 | 58.60238 | 34245 ft | 430 kts | 252° |
| 2026-04-26 04:39 | 45.94679 | 58.52105 | 34244 ft | 430 kts | 252° |
| 2026-04-26 04:40 | 45.92737 | 58.44022 | 34245 ft | 430 kts | 252° |
| 2026-04-26 04:40 | 45.90773 | 58.35881 | 34251 ft | 430 kts | 252° |
| 2026-04-26 04:41 | 45.88810 | 58.27772 | 34254 ft | 431 kts | 252° |
| 2026-04-26 04:41 | 45.86842 | 58.19671 | 34258 ft | 432 kts | 252° |
| 2026-04-26 04:42 | 45.84857 | 58.11533 | 34258 ft | 432 kts | 252° |
| 2026-04-26 04:42 | 45.82862 | 58.03378 | 34248 ft | 432 kts | 252° |
| 2026-04-26 04:43 | 45.80872 | 57.95276 | 34256 ft | 432 kts | 252° |
| 2026-04-26 04:43 | 45.78863 | 57.87124 | 34261 ft | 433 kts | 252° |
| 2026-04-26 04:44 | 45.76862 | 57.79031 | 34263 ft | 433 kts | 252° |
| 2026-04-26 04:44 | 45.74843 | 57.70893 | 34261 ft | 433 kts | 252° |
| 2026-04-26 04:45 | 45.72816 | 57.62757 | 34259 ft | 433 kts | 252° |
| 2026-04-26 04:45 | 45.70795 | 57.54680 | 34267 ft | 433 kts | 252° |
| 2026-04-26 04:46 | 45.68756 | 57.46547 | 34263 ft | 433 kts | 252° |
| 2026-04-26 04:46 | 45.67057 | 57.39790 | 34266 ft | 433 kts | 252° |
| 2026-04-26 04:47 | 45.64681 | 57.30377 | 34263 ft | 432 kts | 252° |
| 2026-04-26 04:47 | 45.62976 | 57.23645 | 34267 ft | 432 kts | 252° |
| 2026-04-26 04:48 | 45.59905 | 57.11567 | 34277 ft | 431 kts | 252° |
| 2026-04-26 04:48 | 45.57848 | 57.03512 | 34274 ft | 431 kts | 252° |
| 2026-04-26 04:49 | 45.55782 | 56.95449 | 34263 ft | 432 kts | 251° |
| 2026-04-26 04:49 | 45.53713 | 56.87403 | 34281 ft | 433 kts | 251° |
| 2026-04-26 04:50 | 45.51628 | 56.79321 | 34280 ft | 434 kts | 251° |
| 2026-04-26 04:50 | 45.49540 | 56.71261 | 34267 ft | 435 kts | 251° |
| 2026-04-26 04:51 | 45.47448 | 56.63210 | 34274 ft | 435 kts | 251° |
| 2026-04-26 04:51 | 45.45332 | 56.55096 | 34279 ft | 435 kts | 251° |
| 2026-04-26 04:52 | 45.43225 | 56.47041 | 34286 ft | 435 kts | 251° |
| 2026-04-26 04:52 | 45.41100 | 56.38948 | 34282 ft | 435 kts | 251° |
| 2026-04-26 04:53 | 45.38974 | 56.30881 | 34269 ft | 434 kts | 251° |
| 2026-04-26 04:53 | 45.36861 | 56.22886 | 34277 ft | 433 kts | 251° |
| 2026-04-26 04:54 | 45.34733 | 56.14863 | 34280 ft | 433 kts | 251° |
| 2026-04-26 04:54 | 45.32609 | 56.06884 | 34278 ft | 432 kts | 251° |
| 2026-04-26 04:55 | 45.30470 | 55.98874 | 34277 ft | 432 kts | 251° |
| 2026-04-26 04:55 | 45.28341 | 55.90926 | 34295 ft | 432 kts | 251° |
| 2026-04-26 04:56 | 45.26186 | 55.82909 | 34289 ft | 434 kts | 251° |
| 2026-04-26 04:56 | 45.24033 | 55.74926 | 34293 ft | 435 kts | 251° |
| 2026-04-26 04:57 | 45.21865 | 55.66916 | 34293 ft | 436 kts | 251° |
| 2026-04-26 04:57 | 45.19687 | 55.58898 | 34287 ft | 436 kts | 251° |
| 2026-04-26 04:58 | 45.17495 | 55.50850 | 34287 ft | 435 kts | 251° |
| 2026-04-26 04:58 | 45.15317 | 55.42881 | 34289 ft | 435 kts | 251° |
| 2026-04-26 04:59 | 45.13124 | 55.34880 | 34291 ft | 435 kts | 251° |
| 2026-04-26 04:59 | 45.10943 | 55.26951 | 34288 ft | 434 kts | 251° |
| 2026-04-26 05:00 | 45.08199 | 55.19323 | 34294 ft | 438 kts | 239° |
| 2026-04-26 05:00 | 45.04374 | 55.12617 | 34294 ft | 443 kts | 228° |
| 2026-04-26 05:01 | 44.99811 | 55.06711 | 34297 ft | 444 kts | 226° |
| 2026-04-26 05:01 | 44.95218 | 55.00860 | 34288 ft | 442 kts | 227° |
| 2026-04-26 05:02 | 44.90687 | 54.95038 | 34289 ft | 441 kts | 227° |
| 2026-04-26 05:02 | 44.86154 | 54.89192 | 34295 ft | 440 kts | 227° |
| 2026-04-26 05:03 | 44.81654 | 54.83397 | 34296 ft | 439 kts | 227° |
| 2026-04-26 05:03 | 44.77132 | 54.77588 | 34303 ft | 439 kts | 227° |
| 2026-04-26 05:04 | 44.72635 | 54.71823 | 34305 ft | 440 kts | 227° |
| 2026-04-26 05:04 | 44.68114 | 54.66015 | 34302 ft | 439 kts | 229° |
| 2026-04-26 05:05 | 44.64132 | 54.59579 | 34302 ft | 433 kts | 239° |
| 2026-04-26 05:05 | 44.60738 | 54.52654 | 34305 ft | 432 kts | 239° |
| 2026-04-26 05:06 | 44.57292 | 54.45710 | 34309 ft | 433 kts | 239° |
| 2026-04-26 05:06 | 44.53853 | 54.38823 | 34305 ft | 433 kts | 239° |
| 2026-04-26 05:07 | 44.50379 | 54.31889 | 34301 ft | 434 kts | 239° |
| 2026-04-26 05:07 | 44.46922 | 54.25003 | 34294 ft | 434 kts | 238° |
| 2026-04-26 05:08 | 44.43439 | 54.18080 | 34310 ft | 434 kts | 238° |
| 2026-04-26 05:08 | 44.39963 | 54.11186 | 34318 ft | 434 kts | 238° |
| 2026-04-26 05:09 | 44.36492 | 54.04319 | 34296 ft | 434 kts | 238° |
| 2026-04-26 05:09 | 44.32987 | 53.97403 | 34307 ft | 435 kts | 238° |
| 2026-04-26 05:10 | 44.29502 | 53.90540 | 34312 ft | 435 kts | 238° |
| 2026-04-26 05:10 | 44.25978 | 53.83619 | 34316 ft | 435 kts | 238° |
| 2026-04-26 05:11 | 44.22483 | 53.76769 | 34308 ft | 435 kts | 238° |
| 2026-04-26 05:11 | 44.18958 | 53.69879 | 34318 ft | 435 kts | 238° |
| 2026-04-26 05:12 | 44.15449 | 53.63035 | 34318 ft | 435 kts | 238° |
| 2026-04-26 05:12 | 44.11915 | 53.56158 | 34318 ft | 435 kts | 238° |
| 2026-04-26 05:13 | 44.08383 | 53.49301 | 34309 ft | 435 kts | 238° |
| 2026-04-26 05:13 | 44.04868 | 53.42494 | 34314 ft | 435 kts | 238° |
| 2026-04-26 05:14 | 44.01348 | 53.35692 | 34316 ft | 435 kts | 238° |
| 2026-04-26 05:14 | 43.97802 | 53.28856 | 34318 ft | 435 kts | 238° |
| 2026-04-26 05:15 | 43.94269 | 53.22060 | 34313 ft | 435 kts | 238° |
| 2026-04-26 05:15 | 43.90721 | 53.15247 | 34319 ft | 436 kts | 238° |
| 2026-04-26 05:16 | 43.87154 | 53.08419 | 34316 ft | 436 kts | 238° |
| 2026-04-26 05:16 | 43.83618 | 53.01661 | 34317 ft | 436 kts | 238° |
| 2026-04-26 05:17 | 43.80050 | 52.94852 | 34313 ft | 436 kts | 238° |
| 2026-04-26 05:17 | 43.76504 | 52.88098 | 34321 ft | 436 kts | 238° |
| 2026-04-26 05:18 | 43.72923 | 52.81294 | 34317 ft | 436 kts | 237° |
| 2026-04-26 05:18 | 43.69344 | 52.74505 | 34298 ft | 436 kts | 237° |
| 2026-04-26 05:19 | 43.65779 | 52.67762 | 34299 ft | 436 kts | 237° |
| 2026-04-26 05:19 | 43.62192 | 52.61034 | 34312 ft | 435 kts | 237° |
| 2026-04-26 05:20 | 43.58583 | 52.54299 | 34313 ft | 435 kts | 237° |
| 2026-04-26 05:20 | 43.55000 | 52.47623 | 34308 ft | 434 kts | 237° |
| 2026-04-26 05:21 | 43.51953 | 52.41952 | 34317 ft | 434 kts | 237° |
| 2026-04-26 05:21 | 43.48732 | 52.35969 | 34318 ft | 433 kts | 237° |
| 2026-04-26 05:22 | 43.45147 | 52.29322 | 34316 ft | 433 kts | 237° |
| 2026-04-26 05:22 | 43.41547 | 52.22663 | 34315 ft | 433 kts | 237° |
| 2026-04-26 05:23 | 43.37946 | 52.16016 | 34317 ft | 433 kts | 237° |
| 2026-04-26 05:23 | 43.34362 | 52.09416 | 34311 ft | 433 kts | 237° |
| 2026-04-26 05:24 | 43.30747 | 52.02775 | 34312 ft | 434 kts | 237° |
| 2026-04-26 05:24 | 43.27140 | 51.96164 | 34309 ft | 434 kts | 237° |
| 2026-04-26 05:25 | 43.23511 | 51.89524 | 34311 ft | 435 kts | 237° |
| 2026-04-26 05:25 | 43.19895 | 51.82927 | 34309 ft | 435 kts | 237° |
| 2026-04-26 05:26 | 43.16259 | 51.76306 | 34307 ft | 435 kts | 237° |
| 2026-04-26 05:26 | 43.12607 | 51.69672 | 34304 ft | 435 kts | 236° |
| 2026-04-26 05:27 | 43.08961 | 51.63062 | 34299 ft | 435 kts | 236° |
| 2026-04-26 05:27 | 43.05307 | 51.56455 | 34301 ft | 435 kts | 236° |
| 2026-04-26 05:28 | 43.01674 | 51.49898 | 34288 ft | 435 kts | 236° |
| 2026-04-26 05:28 | 42.98012 | 51.43304 | 34297 ft | 435 kts | 236° |
| 2026-04-26 05:29 | 42.94372 | 51.36764 | 34294 ft | 435 kts | 236° |
| 2026-04-26 05:29 | 42.90702 | 51.30184 | 34287 ft | 435 kts | 236° |
| 2026-04-26 05:30 | 42.87040 | 51.23633 | 34291 ft | 435 kts | 236° |
| 2026-04-26 05:30 | 42.83367 | 51.17078 | 34287 ft | 434 kts | 236° |
| 2026-04-26 05:31 | 42.79718 | 51.10581 | 34282 ft | 434 kts | 236° |
| 2026-04-26 05:31 | 42.76037 | 51.04040 | 34286 ft | 433 kts | 236° |
| 2026-04-26 05:32 | 42.72366 | 50.97530 | 34283 ft | 433 kts | 236° |
| 2026-04-26 05:32 | 42.68716 | 50.91073 | 34285 ft | 432 kts | 236° |
| 2026-04-26 05:33 | 42.65053 | 50.84606 | 34276 ft | 432 kts | 236° |
| 2026-04-26 05:33 | 42.61369 | 50.78116 | 34267 ft | 432 kts | 236° |
| 2026-04-26 05:34 | 42.57709 | 50.71681 | 34273 ft | 432 kts | 236° |
| 2026-04-26 05:34 | 42.54027 | 50.65222 | 34274 ft | 431 kts | 236° |
| 2026-04-26 05:35 | 42.50370 | 50.58820 | 34271 ft | 431 kts | 236° |
| 2026-04-26 05:35 | 42.47307 | 50.53467 | 34280 ft | 433 kts | 236° |
| 2026-04-26 05:36 | 42.45456 | 50.50235 | 34460 ft | 433 kts | 236° |
| 2026-04-26 05:36 | 42.43599 | 50.47002 | 34701 ft | 432 kts | 236° |
| 2026-04-26 05:36 | 42.41794 | 50.43752 | 34933 ft | 430 kts | 237° |
| 2026-04-26 05:36 | 42.40069 | 50.40498 | 35142 ft | 430 kts | 238° |
| 2026-04-26 05:37 | 42.38340 | 50.37182 | 35326 ft | 430 kts | 238° |
| 2026-04-26 05:37 | 42.36611 | 50.33858 | 35516 ft | 431 kts | 238° |
| 2026-04-26 05:37 | 42.34877 | 50.30542 | 35726 ft | 431 kts | 238° |
| 2026-04-26 05:37 | 42.33143 | 50.27241 | 35935 ft | 431 kts | 238° |
| 2026-04-26 05:38 | 42.31418 | 50.23976 | 36143 ft | 432 kts | 237° |
| 2026-04-26 05:38 | 42.29660 | 50.20657 | 36194 ft | 435 kts | 237° |
| 2026-04-26 05:38 | 42.26121 | 50.14003 | 36257 ft | 434 kts | 237° |
| 2026-04-26 05:39 | 42.22612 | 50.07426 | 36242 ft | 428 kts | 237° |
| 2026-04-26 05:39 | 42.19153 | 50.00952 | 36251 ft | 426 kts | 237° |
| 2026-04-26 05:40 | 42.15690 | 49.94482 | 36256 ft | 425 kts | 237° |
| 2026-04-26 05:40 | 42.12241 | 49.88051 | 36250 ft | 426 kts | 237° |
| 2026-04-26 05:41 | 42.08757 | 49.81568 | 36248 ft | 428 kts | 237° |
| 2026-04-26 05:41 | 42.05250 | 49.75059 | 36247 ft | 430 kts | 237° |
| 2026-04-26 05:42 | 42.01744 | 49.68566 | 36246 ft | 432 kts | 237° |
| 2026-04-26 05:42 | 41.98194 | 49.62005 | 36243 ft | 433 kts | 237° |
| 2026-04-26 05:43 | 41.94666 | 49.55499 | 36226 ft | 432 kts | 237° |
| 2026-04-26 05:43 | 41.91116 | 49.48965 | 36230 ft | 432 kts | 237° |
| 2026-04-26 05:44 | 41.87581 | 49.42472 | 36232 ft | 432 kts | 237° |
| 2026-04-26 05:44 | 41.84027 | 49.35956 | 36232 ft | 432 kts | 237° |
| 2026-04-26 05:45 | 41.80491 | 49.29478 | 36220 ft | 431 kts | 238° |
| 2026-04-26 05:45 | 41.77137 | 49.22808 | 36222 ft | 430 kts | 239° |
| 2026-04-26 05:46 | 41.73876 | 49.16125 | 36221 ft | 430 kts | 239° |
| 2026-04-26 05:46 | 41.70565 | 49.09418 | 36216 ft | 430 kts | 239° |
| 2026-04-26 05:47 | 41.67263 | 49.02801 | 36210 ft | 430 kts | 239° |
| 2026-04-26 05:47 | 41.63932 | 48.96149 | 36210 ft | 430 kts | 239° |
| 2026-04-26 05:48 | 41.60615 | 48.89535 | 36204 ft | 430 kts | 239° |
| 2026-04-26 05:48 | 41.57277 | 48.82890 | 36206 ft | 430 kts | 239° |
| 2026-04-26 05:49 | 41.52282 | 48.72981 | 36205 ft | 430 kts | 238° |
| 2026-04-26 05:50 | 41.48700 | 48.66554 | 36213 ft | 431 kts | 235° |
| 2026-04-26 05:50 | 41.45077 | 48.60237 | 36203 ft | 430 kts | 236° |
| 2026-04-26 05:51 | 41.41488 | 48.53855 | 36178 ft | 428 kts | 237° |
| 2026-04-26 05:51 | 41.37988 | 48.47434 | 36170 ft | 427 kts | 237° |
| 2026-04-26 05:52 | 41.34535 | 48.41058 | 36171 ft | 426 kts | 237° |
| 2026-04-26 05:52 | 41.31048 | 48.34656 | 36160 ft | 425 kts | 237° |
| 2026-04-26 05:53 | 41.27589 | 48.28333 | 36164 ft | 423 kts | 237° |
| 2026-04-26 05:53 | 41.24119 | 48.22002 | 36162 ft | 423 kts | 236° |
| 2026-04-26 05:54 | 41.20652 | 48.15687 | 36178 ft | 428 kts | 236° |
| 2026-04-26 05:54 | 41.17103 | 48.09237 | 36168 ft | 432 kts | 236° |
| 2026-04-26 05:55 | 41.13609 | 48.02807 | 36193 ft | 427 kts | 242° |
| 2026-04-26 05:55 | 41.12442 | 47.99201 | 36214 ft | 424 kts | 255° |
| 2026-04-26 05:55 | 41.11903 | 47.95341 | 36189 ft | 426 kts | 264° |
| 2026-04-26 05:55 | 41.11846 | 47.91439 | 36178 ft | 429 kts | 275° |
| 2026-04-26 05:56 | 41.12391 | 47.87553 | 36229 ft | 429 kts | 279° |
| 2026-04-26 05:56 | 41.13696 | 47.79765 | 36206 ft | 433 kts | 279° |
| 2026-04-26 05:57 | 41.14972 | 47.71981 | 36234 ft | 434 kts | 279° |
| 2026-04-26 05:57 | 41.16223 | 47.64085 | 36231 ft | 437 kts | 279° |
| 2026-04-26 05:58 | 41.17443 | 47.56206 | 36232 ft | 438 kts | 279° |
| 2026-04-26 05:58 | 41.18669 | 47.48261 | 36246 ft | 439 kts | 279° |
| 2026-04-26 05:59 | 41.19891 | 47.40316 | 36227 ft | 437 kts | 279° |
| 2026-04-26 05:59 | 41.21099 | 47.32408 | 36285 ft | 435 kts | 279° |
| 2026-04-26 06:00 | 41.22291 | 47.24572 | 36283 ft | 434 kts | 279° |
| 2026-04-26 06:00 | 41.23483 | 47.16704 | 36294 ft | 433 kts | 279° |
| 2026-04-26 06:01 | 41.24658 | 47.08902 | 36315 ft | 432 kts | 279° |
| 2026-04-26 06:01 | 41.25831 | 47.01078 | 36318 ft | 431 kts | 279° |
| 2026-04-26 06:02 | 41.27000 | 46.93247 | 36326 ft | 431 kts | 279° |
| 2026-04-26 06:02 | 41.28158 | 46.85447 | 36344 ft | 432 kts | 279° |
| 2026-04-26 06:03 | 41.29321 | 46.77581 | 36336 ft | 433 kts | 279° |
| 2026-04-26 06:03 | 41.30455 | 46.69744 | 36345 ft | 434 kts | 278° |
| 2026-04-26 06:04 | 41.31555 | 46.61848 | 36337 ft | 434 kts | 278° |
| 2026-04-26 06:04 | 41.32652 | 46.53922 | 36354 ft | 434 kts | 278° |
| 2026-04-26 06:05 | 41.33740 | 46.46044 | 36350 ft | 435 kts | 278° |
| 2026-04-26 06:05 | 41.34835 | 46.38101 | 36342 ft | 436 kts | 278° |
| 2026-04-26 06:06 | 41.35917 | 46.30214 | 36337 ft | 436 kts | 278° |
| 2026-04-26 06:06 | 41.37001 | 46.22260 | 36358 ft | 435 kts | 278° |
| 2026-04-26 06:07 | 41.38077 | 46.14327 | 36348 ft | 436 kts | 278° |
| 2026-04-26 06:07 | 41.39145 | 46.06414 | 36334 ft | 436 kts | 278° |
| 2026-04-26 06:08 | 41.40213 | 45.98450 | 36327 ft | 436 kts | 278° |
| 2026-04-26 06:08 | 41.41271 | 45.90525 | 36328 ft | 436 kts | 278° |
| 2026-04-26 06:09 | 41.42326 | 45.82574 | 36327 ft | 436 kts | 278° |
| 2026-04-26 06:09 | 41.43378 | 45.74603 | 36318 ft | 436 kts | 278° |
| 2026-04-26 06:10 | 41.44420 | 45.66665 | 36313 ft | 436 kts | 278° |
| 2026-04-26 06:10 | 41.45463 | 45.58670 | 36308 ft | 436 kts | 278° |
| 2026-04-26 06:11 | 41.46493 | 45.50735 | 36312 ft | 436 kts | 278° |
| 2026-04-26 06:11 | 41.47526 | 45.42737 | 36311 ft | 437 kts | 278° |
| 2026-04-26 06:12 | 41.48488 | 45.34777 | 36293 ft | 436 kts | 275° |
| 2026-04-26 06:12 | 41.49160 | 45.26715 | 36301 ft | 437 kts | 275° |
| 2026-04-26 06:13 | 41.49801 | 45.18640 | 36297 ft | 437 kts | 275° |
| 2026-04-26 06:13 | 41.50445 | 45.10613 | 36288 ft | 438 kts | 275° |
| 2026-04-26 06:14 | 41.51096 | 45.02525 | 36290 ft | 438 kts | 275° |
| 2026-04-26 06:14 | 41.51741 | 44.94471 | 36307 ft | 438 kts | 274° |
| 2026-04-26 06:15 | 41.52385 | 44.86346 | 36293 ft | 439 kts | 274° |
| 2026-04-26 06:15 | 41.53022 | 44.78243 | 36287 ft | 439 kts | 274° |
| 2026-04-26 06:16 | 41.53651 | 44.70166 | 36294 ft | 439 kts | 274° |
| 2026-04-26 06:16 | 41.54278 | 44.62038 | 36281 ft | 439 kts | 274° |
| 2026-04-26 06:17 | 41.54894 | 44.53967 | 36275 ft | 439 kts | 274° |
| 2026-04-26 06:17 | 41.55509 | 44.45847 | 36261 ft | 439 kts | 274° |
| 2026-04-26 06:18 | 41.56114 | 44.37779 | 36257 ft | 439 kts | 274° |
| 2026-04-26 06:18 | 41.56718 | 44.29657 | 36242 ft | 438 kts | 274° |
| 2026-04-26 06:19 | 41.56933 | 44.21561 | 36230 ft | 437 kts | 266° |
| 2026-04-26 06:19 | 41.56182 | 44.13499 | 36226 ft | 437 kts | 261° |
| 2026-04-26 06:20 | 41.55262 | 44.05457 | 36220 ft | 437 kts | 261° |
| 2026-04-26 06:20 | 41.54355 | 43.97414 | 36202 ft | 438 kts | 261° |
| 2026-04-26 06:21 | 41.53458 | 43.89416 | 36186 ft | 438 kts | 261° |
| 2026-04-26 06:21 | 41.52550 | 43.81354 | 36188 ft | 438 kts | 261° |
| 2026-04-26 06:22 | 41.51641 | 43.73341 | 36148 ft | 438 kts | 261° |
| 2026-04-26 06:22 | 41.50720 | 43.65274 | 36162 ft | 438 kts | 261° |
| 2026-04-26 06:23 | 41.49798 | 43.57248 | 36144 ft | 439 kts | 261° |
| 2026-04-26 06:23 | 41.49025 | 43.50558 | 36127 ft | 440 kts | 261° |
| 2026-04-26 06:24 | 41.47933 | 43.41161 | 36127 ft | 440 kts | 261° |
| 2026-04-26 06:24 | 41.47148 | 43.34457 | 36126 ft | 440 kts | 261° |
| 2026-04-26 06:25 | 41.46195 | 43.26363 | 36132 ft | 440 kts | 261° |
| 2026-04-26 06:25 | 41.45247 | 43.18351 | 36136 ft | 440 kts | 261° |
| 2026-04-26 06:26 | 41.44286 | 43.10287 | 36132 ft | 440 kts | 260° |
| 2026-04-26 06:26 | 41.43327 | 43.02273 | 36146 ft | 439 kts | 260° |
| 2026-04-26 06:27 | 41.42355 | 42.94208 | 36157 ft | 440 kts | 260° |
| 2026-04-26 06:27 | 41.41380 | 42.86156 | 36148 ft | 440 kts | 260° |
| 2026-04-26 06:28 | 41.40406 | 42.78145 | 36135 ft | 440 kts | 260° |
| 2026-04-26 06:28 | 41.39420 | 42.70079 | 36149 ft | 440 kts | 260° |
| 2026-04-26 06:29 | 41.38429 | 42.62025 | 36137 ft | 440 kts | 260° |
| 2026-04-26 06:29 | 41.37441 | 42.54030 | 36120 ft | 440 kts | 260° |
| 2026-04-26 06:30 | 41.36437 | 42.45972 | 36119 ft | 440 kts | 260° |
| 2026-04-26 06:30 | 41.35434 | 42.37961 | 36120 ft | 440 kts | 259° |
| 2026-04-26 06:31 | 41.34423 | 42.29925 | 36096 ft | 440 kts | 259° |
| 2026-04-26 06:31 | 41.33403 | 42.21879 | 36092 ft | 440 kts | 259° |
| 2026-04-26 06:32 | 41.32386 | 42.13894 | 36079 ft | 440 kts | 259° |
| 2026-04-26 06:32 | 41.31358 | 42.05850 | 36079 ft | 440 kts | 259° |
| 2026-04-26 06:33 | 41.30323 | 41.97829 | 36067 ft | 440 kts | 259° |
| 2026-04-26 06:33 | 41.29278 | 41.89830 | 36067 ft | 441 kts | 259° |
| 2026-04-26 06:34 | 41.28215 | 41.81833 | 36065 ft | 442 kts | 259° |
| 2026-04-26 06:34 | 41.27138 | 41.73753 | 36049 ft | 444 kts | 259° |
| 2026-04-26 06:35 | 41.26058 | 41.65673 | 36064 ft | 443 kts | 259° |
| 2026-04-26 06:35 | 41.24970 | 41.57586 | 36032 ft | 445 kts | 259° |
| 2026-04-26 06:36 | 41.23879 | 41.49522 | 36048 ft | 445 kts | 258° |
| 2026-04-26 06:36 | 41.22778 | 41.41425 | 36041 ft | 444 kts | 258° |
| 2026-04-26 06:37 | 41.21671 | 41.33323 | 36029 ft | 445 kts | 258° |
| 2026-04-26 06:37 | 41.20565 | 41.25280 | 36023 ft | 444 kts | 258° |
| 2026-04-26 06:38 | 41.19444 | 41.17192 | 36016 ft | 445 kts | 258° |
| 2026-04-26 06:38 | 41.18328 | 41.09152 | 36017 ft | 446 kts | 258° |
| 2026-04-26 06:39 | 41.17193 | 41.01032 | 36022 ft | 448 kts | 258° |
| 2026-04-26 06:39 | 41.16048 | 40.92884 | 36021 ft | 448 kts | 258° |
| 2026-04-26 06:40 | 41.14907 | 40.84806 | 36014 ft | 447 kts | 258° |
| 2026-04-26 06:40 | 41.13756 | 40.76686 | 36021 ft | 447 kts | 258° |
| 2026-04-26 06:41 | 41.12598 | 40.68573 | 36021 ft | 447 kts | 258° |
| 2026-04-26 06:41 | 41.11440 | 40.60505 | 36010 ft | 447 kts | 258° |
| 2026-04-26 06:42 | 41.10270 | 40.52391 | 35999 ft | 448 kts | 258° |
| 2026-04-26 06:42 | 41.09097 | 40.44301 | 35990 ft | 448 kts | 258° |
| 2026-04-26 06:43 | 41.07912 | 40.36171 | 35985 ft | 448 kts | 258° |
| 2026-04-26 06:43 | 41.06726 | 40.28076 | 35987 ft | 450 kts | 258° |
| 2026-04-26 06:44 | 41.05526 | 40.19926 | 35991 ft | 450 kts | 258° |
| 2026-04-26 06:44 | 41.04326 | 40.11813 | 35992 ft | 450 kts | 258° |
| 2026-04-26 06:45 | 41.03113 | 40.03658 | 35990 ft | 450 kts | 258° |
| 2026-04-26 06:45 | 41.01901 | 39.95545 | 35993 ft | 450 kts | 257° |
| 2026-04-26 06:46 | 41.00686 | 39.87451 | 35994 ft | 450 kts | 257° |
| 2026-04-26 06:46 | 40.99942 | 39.79199 | 35995 ft | 452 kts | 267° |
| 2026-04-26 06:47 | 41.00260 | 39.70859 | 35995 ft | 455 kts | 275° |
| 2026-04-26 06:47 | 41.01088 | 39.62579 | 36002 ft | 456 kts | 275° |
| 2026-04-26 06:48 | 41.01920 | 39.54230 | 35992 ft | 456 kts | 275° |
| 2026-04-26 06:48 | 41.02713 | 39.45936 | 35987 ft | 456 kts | 275° |
| 2026-04-26 06:49 | 41.03496 | 39.37571 | 35992 ft | 457 kts | 275° |
| 2026-04-26 06:49 | 41.04270 | 39.29248 | 35992 ft | 458 kts | 275° |
| 2026-04-26 06:50 | 41.05044 | 39.20861 | 35994 ft | 458 kts | 275° |
| 2026-04-26 06:50 | 41.05808 | 39.12533 | 35989 ft | 458 kts | 275° |
| 2026-04-26 06:51 | 41.06589 | 39.04139 | 35991 ft | 458 kts | 275° |
| 2026-04-26 06:51 | 41.07753 | 38.91601 | 35988 ft | 458 kts | 275° |
| 2026-04-26 06:52 | 41.08521 | 38.83212 | 35988 ft | 458 kts | 275° |
| 2026-04-26 06:52 | 41.09284 | 38.74817 | 35989 ft | 458 kts | 275° |
| 2026-04-26 06:53 | 41.10028 | 38.66414 | 35989 ft | 459 kts | 274° |
| 2026-04-26 06:53 | 41.10716 | 38.58044 | 35990 ft | 459 kts | 274° |
| 2026-04-26 06:54 | 41.11428 | 38.49603 | 36001 ft | 459 kts | 275° |
| 2026-04-26 06:54 | 41.12139 | 38.41180 | 35992 ft | 460 kts | 274° |
| 2026-04-26 06:55 | 41.12841 | 38.32769 | 35989 ft | 460 kts | 274° |
| 2026-04-26 06:55 | 41.13538 | 38.24312 | 35992 ft | 460 kts | 274° |
| 2026-04-26 06:56 | 41.14221 | 38.15864 | 35986 ft | 460 kts | 274° |
| 2026-04-26 06:56 | 41.14893 | 38.07463 | 35997 ft | 460 kts | 274° |
| 2026-04-26 06:57 | 41.15566 | 37.98999 | 35992 ft | 460 kts | 274° |
| 2026-04-26 06:57 | 41.16231 | 37.90575 | 35992 ft | 461 kts | 274° |
| 2026-04-26 06:58 | 41.16932 | 37.82088 | 35990 ft | 461 kts | 275° |
| 2026-04-26 06:58 | 41.17677 | 37.73670 | 35998 ft | 461 kts | 275° |
| 2026-04-26 06:59 | 41.18412 | 37.65190 | 35989 ft | 461 kts | 275° |
| 2026-04-26 06:59 | 41.19020 | 37.56769 | 35995 ft | 460 kts | 272° |
| 2026-04-26 07:00 | 41.19473 | 37.48269 | 35990 ft | 460 kts | 274° |
| 2026-04-26 07:00 | 41.20124 | 37.39835 | 35990 ft | 461 kts | 274° |
| 2026-04-26 07:01 | 41.20765 | 37.31353 | 35994 ft | 462 kts | 274° |
| 2026-04-26 07:01 | 41.21373 | 37.22903 | 35987 ft | 462 kts | 274° |
| 2026-04-26 07:02 | 41.22024 | 37.14394 | 35990 ft | 462 kts | 275° |
| 2026-04-26 07:02 | 41.22707 | 37.05886 | 35989 ft | 462 kts | 275° |
| 2026-04-26 07:03 | 41.23375 | 36.97433 | 35987 ft | 462 kts | 275° |
| 2026-04-26 07:03 | 41.24035 | 36.88907 | 35980 ft | 463 kts | 275° |
| 2026-04-26 07:04 | 41.24683 | 36.80436 | 35973 ft | 462 kts | 274° |
| 2026-04-26 07:04 | 41.25329 | 36.71905 | 35966 ft | 463 kts | 274° |
| 2026-04-26 07:05 | 41.25970 | 36.63388 | 35968 ft | 463 kts | 274° |
| 2026-04-26 07:05 | 41.26784 | 36.54924 | 35988 ft | 465 kts | 280° |
| 2026-04-26 07:06 | 41.28618 | 36.46648 | 35989 ft | 466 kts | 288° |
| 2026-04-26 07:06 | 41.30737 | 36.38524 | 35991 ft | 467 kts | 288° |
| 2026-04-26 07:07 | 41.32848 | 36.30336 | 35997 ft | 468 kts | 288° |
| 2026-04-26 07:07 | 41.34935 | 36.22118 | 35987 ft | 469 kts | 287° |
| 2026-04-26 07:08 | 41.36999 | 36.13930 | 35984 ft | 469 kts | 287° |
| 2026-04-26 07:08 | 41.39073 | 36.05668 | 35988 ft | 469 kts | 287° |
| 2026-04-26 07:09 | 41.41124 | 35.97471 | 36001 ft | 468 kts | 288° |
| 2026-04-26 07:09 | 41.43180 | 35.89228 | 35997 ft | 469 kts | 287° |
| 2026-04-26 07:11 | 41.48295 | 35.68599 | 35993 ft | 468 kts | 287° |
| 2026-04-26 07:11 | 41.49988 | 35.61730 | 35996 ft | 468 kts | 287° |
| 2026-04-26 07:12 | 41.52346 | 35.52129 | 35995 ft | 468 kts | 287° |
| 2026-04-26 07:12 | 41.54029 | 35.45251 | 36001 ft | 467 kts | 287° |
| 2026-04-26 07:13 | 41.56035 | 35.37030 | 35997 ft | 467 kts | 287° |
| 2026-04-26 07:13 | 41.58045 | 35.28759 | 36000 ft | 467 kts | 287° |
| 2026-04-26 07:14 | 41.60041 | 35.20519 | 36001 ft | 468 kts | 287° |
| 2026-04-26 07:14 | 41.62045 | 35.12220 | 36006 ft | 468 kts | 287° |
| 2026-04-26 07:15 | 41.64032 | 35.03954 | 36013 ft | 469 kts | 287° |
| 2026-04-26 07:15 | 41.66026 | 34.95635 | 36001 ft | 469 kts | 282° |
| 2026-04-26 07:15 | 41.66684 | 34.91417 | 36020 ft | 458 kts | 270° |
| 2026-04-26 07:16 | 41.66719 | 34.87180 | 35952 ft | 453 kts | 264° |
| 2026-04-26 07:16 | 41.66900 | 34.83024 | 36062 ft | 444 kts | 287° |
| 2026-04-26 07:16 | 41.68527 | 34.79625 | 35993 ft | 448 kts | 324° |
| 2026-04-26 07:16 | 41.71317 | 34.77698 | 36006 ft | 453 kts | 337° |
| 2026-04-26 07:17 | 41.74136 | 34.75823 | 35983 ft | 453 kts | 322° |
| 2026-04-26 07:17 | 41.76328 | 34.72865 | 36008 ft | 455 kts | 302° |
| 2026-04-26 07:17 | 41.77628 | 34.69005 | 36002 ft | 458 kts | 282° |
| 2026-04-26 07:17 | 41.77878 | 34.64754 | 36014 ft | 462 kts | 267° |
| 2026-04-26 07:18 | 41.77703 | 34.60433 | 35978 ft | 467 kts | 269° |
| 2026-04-26 07:18 | 41.77556 | 34.51664 | 35996 ft | 472 kts | 272° |
| 2026-04-26 07:19 | 41.78463 | 34.42962 | 36013 ft | 471 kts | 283° |
| 2026-04-26 07:19 | 41.80265 | 34.34607 | 35988 ft | 462 kts | 288° |
| 2026-04-26 07:20 | 41.82256 | 34.26456 | 35993 ft | 463 kts | 288° |
| 2026-04-26 07:20 | 41.84223 | 34.18202 | 36001 ft | 464 kts | 287° |
| 2026-04-26 07:21 | 41.86136 | 34.09940 | 35996 ft | 465 kts | 287° |
| 2026-04-26 07:21 | 41.88041 | 34.01628 | 35992 ft | 466 kts | 287° |
| 2026-04-26 07:22 | 41.89939 | 33.93321 | 35993 ft | 466 kts | 287° |
| 2026-04-26 07:22 | 41.91841 | 33.84974 | 35991 ft | 467 kts | 287° |
| 2026-04-26 07:23 | 41.93729 | 33.76664 | 35991 ft | 467 kts | 287° |
| 2026-04-26 07:23 | 41.95596 | 33.68342 | 35993 ft | 467 kts | 286° |
| 2026-04-26 07:24 | 41.97244 | 33.59887 | 35989 ft | 466 kts | 284° |
| 2026-04-26 07:24 | 41.98822 | 33.51430 | 35992 ft | 466 kts | 284° |
| 2026-04-26 07:25 | 42.00423 | 33.42983 | 35984 ft | 466 kts | 285° |
| 2026-04-26 07:25 | 42.02028 | 33.34583 | 35993 ft | 466 kts | 285° |
| 2026-04-26 07:26 | 42.03639 | 33.26124 | 35990 ft | 465 kts | 285° |
| 2026-04-26 07:26 | 42.05232 | 33.17710 | 35998 ft | 465 kts | 284° |
| 2026-04-26 07:27 | 42.06819 | 33.09302 | 35995 ft | 465 kts | 285° |
| 2026-04-26 07:27 | 42.08485 | 33.00867 | 35997 ft | 465 kts | 286° |
| 2026-04-26 07:28 | 42.10236 | 32.92462 | 36002 ft | 465 kts | 286° |
| 2026-04-26 07:28 | 42.11968 | 32.84058 | 36001 ft | 465 kts | 286° |
| 2026-04-26 07:29 | 42.13676 | 32.75668 | 36001 ft | 465 kts | 286° |
| 2026-04-26 07:29 | 42.15368 | 32.67311 | 35998 ft | 465 kts | 285° |
| 2026-04-26 07:30 | 42.17070 | 32.58872 | 35999 ft | 464 kts | 285° |
| 2026-04-26 07:30 | 42.18750 | 32.50487 | 35999 ft | 464 kts | 285° |
| 2026-04-26 07:31 | 42.20430 | 32.42064 | 36005 ft | 464 kts | 285° |
| 2026-04-26 07:31 | 42.22096 | 32.33675 | 36001 ft | 464 kts | 285° |
| 2026-04-26 07:32 | 42.23765 | 32.25246 | 36002 ft | 464 kts | 285° |
| 2026-04-26 07:32 | 42.25421 | 32.16852 | 36003 ft | 464 kts | 285° |
| 2026-04-26 07:33 | 42.27081 | 32.08432 | 36000 ft | 464 kts | 285° |
| 2026-04-26 07:33 | 42.28723 | 32.00014 | 36003 ft | 463 kts | 285° |
| 2026-04-26 07:34 | 42.30358 | 31.91591 | 36003 ft | 463 kts | 285° |
| 2026-04-26 07:34 | 42.31977 | 31.83220 | 36005 ft | 462 kts | 285° |
| 2026-04-26 07:35 | 42.33602 | 31.74783 | 36004 ft | 462 kts | 285° |
| 2026-04-26 07:35 | 42.35216 | 31.66370 | 35997 ft | 462 kts | 285° |
| 2026-04-26 07:36 | 42.36817 | 31.57990 | 36008 ft | 462 kts | 285° |
| 2026-04-26 07:36 | 42.38419 | 31.49562 | 36005 ft | 462 kts | 285° |
| 2026-04-26 07:37 | 42.40009 | 31.41163 | 36002 ft | 463 kts | 285° |
| 2026-04-26 07:37 | 42.41604 | 31.32707 | 36003 ft | 463 kts | 285° |
| 2026-04-26 07:38 | 42.43190 | 31.24253 | 36006 ft | 463 kts | 285° |
| 2026-04-26 07:38 | 42.44768 | 31.15812 | 36002 ft | 463 kts | 285° |
| 2026-04-26 07:39 | 42.46334 | 31.07398 | 36001 ft | 462 kts | 285° |
| 2026-04-26 07:39 | 42.47908 | 30.98927 | 36002 ft | 462 kts | 285° |
| 2026-04-26 07:40 | 42.49463 | 30.90526 | 36001 ft | 462 kts | 285° |
| 2026-04-26 07:40 | 42.51020 | 30.82076 | 36003 ft | 461 kts | 285° |
| 2026-04-26 07:41 | 42.52570 | 30.73621 | 35991 ft | 461 kts | 285° |
| 2026-04-26 07:41 | 42.54101 | 30.65234 | 35994 ft | 460 kts | 284° |
| 2026-04-26 07:42 | 42.55634 | 30.56797 | 35995 ft | 460 kts | 284° |
| 2026-04-26 07:42 | 42.57159 | 30.48368 | 35995 ft | 459 kts | 284° |
| 2026-04-26 07:43 | 42.58670 | 30.39981 | 35993 ft | 459 kts | 284° |
| 2026-04-26 07:43 | 42.60228 | 30.31592 | 35989 ft | 457 kts | 289° |
| 2026-04-26 07:44 | 42.63014 | 30.23840 | 36001 ft | 456 kts | 303° |
| 2026-04-26 07:44 | 42.66982 | 30.17188 | 35999 ft | 456 kts | 311° |
| 2026-04-26 07:45 | 42.71262 | 30.10781 | 35989 ft | 457 kts | 311° |
| 2026-04-26 07:45 | 42.75523 | 30.04358 | 35992 ft | 457 kts | 311° |
| 2026-04-26 07:46 | 42.79729 | 29.97936 | 35992 ft | 457 kts | 311° |
| 2026-04-26 07:46 | 42.83961 | 29.91431 | 35992 ft | 457 kts | 311° |
| 2026-04-26 07:47 | 42.88149 | 29.84977 | 35983 ft | 456 kts | 311° |
| 2026-04-26 07:47 | 42.92362 | 29.78471 | 35994 ft | 456 kts | 310° |
| 2026-04-26 07:48 | 42.96540 | 29.72006 | 35978 ft | 455 kts | 310° |
| 2026-04-26 07:48 | 43.00728 | 29.65511 | 35981 ft | 454 kts | 310° |
| 2026-04-26 07:49 | 43.04893 | 29.59038 | 35979 ft | 453 kts | 310° |
| 2026-04-26 07:49 | 43.09026 | 29.52600 | 35978 ft | 452 kts | 310° |
| 2026-04-26 07:50 | 43.15230 | 29.42909 | 35979 ft | 452 kts | 310° |
| 2026-04-26 07:50 | 43.19375 | 29.36417 | 35975 ft | 452 kts | 310° |
| 2026-04-26 07:51 | 43.23517 | 29.29914 | 35972 ft | 452 kts | 310° |
| 2026-04-26 07:51 | 43.27662 | 29.23393 | 35975 ft | 452 kts | 310° |
| 2026-04-26 07:52 | 43.31773 | 29.16911 | 35971 ft | 452 kts | 310° |
| 2026-04-26 07:52 | 43.35912 | 29.10368 | 35970 ft | 452 kts | 310° |
| 2026-04-26 07:53 | 43.40018 | 29.03863 | 35971 ft | 452 kts | 310° |
| 2026-04-26 07:53 | 43.44134 | 28.97328 | 35964 ft | 451 kts | 309° |
| 2026-04-26 07:54 | 43.48241 | 28.90793 | 35959 ft | 450 kts | 309° |
| 2026-04-26 07:54 | 43.52335 | 28.84263 | 35956 ft | 449 kts | 309° |
| 2026-04-26 07:55 | 43.56400 | 28.77764 | 35952 ft | 449 kts | 309° |
| 2026-04-26 07:55 | 43.60476 | 28.71234 | 35959 ft | 448 kts | 309° |
| 2026-04-26 07:56 | 43.64543 | 28.64701 | 35948 ft | 448 kts | 309° |
| 2026-04-26 07:56 | 43.68579 | 28.58207 | 35935 ft | 447 kts | 309° |
| 2026-04-26 07:57 | 43.72560 | 28.51589 | 35932 ft | 446 kts | 304° |
| 2026-04-26 07:57 | 43.75762 | 28.44274 | 35931 ft | 443 kts | 296° |
| 2026-04-26 07:58 | 43.78467 | 28.36632 | 35923 ft | 443 kts | 295° |
| 2026-04-26 07:58 | 43.80718 | 28.30246 | 35920 ft | 443 kts | 295° |
| 2026-04-26 07:59 | 43.83416 | 28.22623 | 35923 ft | 442 kts | 295° |
| 2026-04-26 07:59 | 43.86138 | 28.14944 | 35919 ft | 442 kts | 295° |
| 2026-04-26 08:00 | 43.88835 | 28.07324 | 35914 ft | 442 kts | 295° |
| 2026-04-26 08:00 | 43.91543 | 27.99653 | 35916 ft | 441 kts | 295° |
| 2026-04-26 08:01 | 43.94240 | 27.91991 | 35910 ft | 442 kts | 295° |
| 2026-04-26 08:01 | 43.96926 | 27.84340 | 35916 ft | 441 kts | 295° |
| 2026-04-26 08:02 | 43.99603 | 27.76690 | 35909 ft | 442 kts | 295° |
| 2026-04-26 08:02 | 44.02275 | 27.69035 | 35911 ft | 442 kts | 295° |
| 2026-04-26 08:03 | 44.04960 | 27.61319 | 35924 ft | 442 kts | 295° |
| 2026-04-26 08:03 | 44.07639 | 27.53598 | 35906 ft | 442 kts | 295° |
| 2026-04-26 08:04 | 44.10298 | 27.45914 | 35905 ft | 443 kts | 295° |
| 2026-04-26 08:04 | 44.12968 | 27.38178 | 35915 ft | 442 kts | 295° |
| 2026-04-26 08:05 | 44.15616 | 27.30481 | 35910 ft | 442 kts | 295° |
| 2026-04-26 08:05 | 44.18274 | 27.22734 | 35906 ft | 441 kts | 295° |
| 2026-04-26 08:06 | 44.20899 | 27.15060 | 35909 ft | 440 kts | 295° |
| 2026-04-26 08:06 | 44.23533 | 27.07340 | 35905 ft | 440 kts | 295° |
| 2026-04-26 08:07 | 44.26145 | 26.99661 | 35913 ft | 439 kts | 295° |
| 2026-04-26 08:07 | 44.28762 | 26.91945 | 35906 ft | 439 kts | 295° |
| 2026-04-26 08:08 | 44.31356 | 26.84276 | 35906 ft | 438 kts | 294° |
| 2026-04-26 08:08 | 44.33957 | 26.76563 | 35904 ft | 438 kts | 294° |
| 2026-04-26 08:09 | 44.36555 | 26.68839 | 35907 ft | 438 kts | 294° |
| 2026-04-26 08:09 | 44.39147 | 26.61107 | 35923 ft | 438 kts | 294° |
| 2026-04-26 08:10 | 44.41721 | 26.53410 | 35909 ft | 438 kts | 294° |
| 2026-04-26 08:10 | 44.44302 | 26.45665 | 35902 ft | 438 kts | 294° |
| 2026-04-26 08:11 | 44.46867 | 26.37949 | 35905 ft | 438 kts | 294° |
| 2026-04-26 08:11 | 44.49434 | 26.30206 | 35906 ft | 438 kts | 294° |
| 2026-04-26 08:12 | 44.51978 | 26.22506 | 35912 ft | 438 kts | 294° |
| 2026-04-26 08:12 | 44.54535 | 26.14747 | 35913 ft | 438 kts | 294° |
| 2026-04-26 08:13 | 44.57074 | 26.07018 | 35906 ft | 438 kts | 294° |
| 2026-04-26 08:13 | 44.59626 | 25.99228 | 35914 ft | 438 kts | 294° |
| 2026-04-26 08:14 | 44.62177 | 25.91416 | 35910 ft | 439 kts | 294° |
| 2026-04-26 08:14 | 44.64700 | 25.83671 | 35907 ft | 439 kts | 294° |
| 2026-04-26 08:15 | 44.67242 | 25.75842 | 35904 ft | 440 kts | 294° |
| 2026-04-26 08:15 | 44.69767 | 25.68040 | 35901 ft | 440 kts | 294° |
| 2026-04-26 08:16 | 44.72310 | 25.60162 | 35895 ft | 441 kts | 294° |
| 2026-04-26 08:16 | 44.74834 | 25.52317 | 35897 ft | 442 kts | 294° |
| 2026-04-26 08:17 | 44.77356 | 25.44456 | 35897 ft | 442 kts | 294° |
| 2026-04-26 08:17 | 44.79885 | 25.36550 | 35902 ft | 443 kts | 294° |
| 2026-04-26 08:18 | 44.82401 | 25.28660 | 35903 ft | 443 kts | 294° |
| 2026-04-26 08:18 | 44.84931 | 25.20701 | 35910 ft | 444 kts | 294° |
| 2026-04-26 08:19 | 44.87448 | 25.12757 | 35920 ft | 444 kts | 294° |
| 2026-04-26 08:19 | 44.89952 | 25.04833 | 35904 ft | 444 kts | 294° |
| 2026-04-26 08:20 | 44.92474 | 24.96828 | 35914 ft | 445 kts | 294° |
| 2026-04-26 08:20 | 44.94971 | 24.88876 | 35915 ft | 446 kts | 294° |
| 2026-04-26 08:21 | 44.97484 | 24.80849 | 35909 ft | 446 kts | 294° |
| 2026-04-26 08:21 | 44.99997 | 24.72796 | 35920 ft | 448 kts | 294° |
| 2026-04-26 08:22 | 45.02494 | 24.64769 | 35924 ft | 449 kts | 294° |
| 2026-04-26 08:22 | 45.05005 | 24.56674 | 35927 ft | 450 kts | 294° |
| 2026-04-26 08:23 | 45.07521 | 24.48537 | 35924 ft | 451 kts | 294° |
| 2026-04-26 08:23 | 45.10036 | 24.40376 | 35923 ft | 453 kts | 294° |
| 2026-04-26 08:24 | 45.12540 | 24.32222 | 35935 ft | 454 kts | 294° |
| 2026-04-26 08:24 | 45.15063 | 24.23984 | 35934 ft | 456 kts | 294° |
| 2026-04-26 08:25 | 45.17582 | 24.15729 | 35939 ft | 456 kts | 294° |
| 2026-04-26 08:25 | 45.20084 | 24.07504 | 35957 ft | 456 kts | 294° |
| 2026-04-26 08:26 | 45.22580 | 23.99271 | 35937 ft | 449 kts | 295° |
| 2026-04-26 08:26 | 45.25025 | 23.91178 | 35949 ft | 442 kts | 295° |
| 2026-04-26 08:27 | 45.27447 | 23.83143 | 35937 ft | 447 kts | 294° |
| 2026-04-26 08:27 | 45.29894 | 23.75001 | 35940 ft | 446 kts | 295° |
| 2026-04-26 08:28 | 45.32296 | 23.66868 | 35960 ft | 446 kts | 294° |
| 2026-04-26 08:28 | 45.34530 | 23.58696 | 35951 ft | 445 kts | 293° |
| 2026-04-26 08:29 | 45.36734 | 23.50478 | 35956 ft | 444 kts | 292° |
| 2026-04-26 08:29 | 45.38939 | 23.42312 | 35947 ft | 444 kts | 293° |
| 2026-04-26 08:30 | 45.41163 | 23.34081 | 35964 ft | 445 kts | 293° |
| 2026-04-26 08:30 | 45.43368 | 23.25906 | 35971 ft | 445 kts | 293° |
| 2026-04-26 08:31 | 45.45582 | 23.17673 | 35963 ft | 445 kts | 293° |
| 2026-04-26 08:31 | 45.47792 | 23.09432 | 35964 ft | 446 kts | 292° |
| 2026-04-26 08:32 | 45.50002 | 23.01152 | 35967 ft | 447 kts | 292° |
| 2026-04-26 08:32 | 45.52216 | 22.92831 | 35974 ft | 449 kts | 292° |
| 2026-04-26 08:33 | 45.54416 | 22.84534 | 35978 ft | 450 kts | 292° |
| 2026-04-26 08:33 | 45.56628 | 22.76157 | 35966 ft | 451 kts | 292° |
| 2026-04-26 08:34 | 45.58841 | 22.67747 | 35986 ft | 452 kts | 292° |
| 2026-04-26 08:34 | 45.61037 | 22.59380 | 35988 ft | 452 kts | 292° |
| 2026-04-26 08:35 | 45.63244 | 22.50938 | 35996 ft | 452 kts | 292° |
| 2026-04-26 08:35 | 45.65429 | 22.42547 | 35987 ft | 452 kts | 292° |
| 2026-04-26 08:36 | 45.67624 | 22.34090 | 36005 ft | 453 kts | 292° |
| 2026-04-26 08:36 | 45.69820 | 22.25598 | 36004 ft | 455 kts | 292° |
| 2026-04-26 08:37 | 45.71998 | 22.17143 | 36015 ft | 456 kts | 292° |
| 2026-04-26 08:37 | 45.74186 | 22.08615 | 36004 ft | 456 kts | 292° |
| 2026-04-26 08:38 | 45.76372 | 22.00066 | 36011 ft | 456 kts | 292° |
| 2026-04-26 08:38 | 45.78542 | 21.91552 | 36010 ft | 456 kts | 292° |
| 2026-04-26 08:39 | 45.80716 | 21.82985 | 36008 ft | 456 kts | 292° |
| 2026-04-26 08:39 | 45.82884 | 21.74413 | 36008 ft | 456 kts | 291° |
| 2026-04-26 08:40 | 45.85025 | 21.65915 | 36007 ft | 456 kts | 291° |
| 2026-04-26 08:40 | 45.87174 | 21.57355 | 36010 ft | 456 kts | 291° |
| 2026-04-26 08:41 | 45.89308 | 21.48819 | 36031 ft | 455 kts | 291° |
| 2026-04-26 08:41 | 45.91449 | 21.40230 | 36028 ft | 455 kts | 291° |
| 2026-04-26 08:42 | 45.93568 | 21.31689 | 36032 ft | 455 kts | 291° |
| 2026-04-26 08:42 | 45.95695 | 21.23088 | 36024 ft | 455 kts | 291° |
| 2026-04-26 08:43 | 45.97801 | 21.14539 | 36030 ft | 455 kts | 291° |
| 2026-04-26 08:43 | 45.99914 | 21.05926 | 36024 ft | 455 kts | 291° |
| 2026-04-26 08:44 | 46.02016 | 20.97328 | 36017 ft | 455 kts | 291° |
| 2026-04-26 08:44 | 46.04097 | 20.88781 | 36026 ft | 455 kts | 291° |
| 2026-04-26 08:45 | 46.06189 | 20.80157 | 36021 ft | 455 kts | 291° |
| 2026-04-26 08:45 | 46.08262 | 20.71581 | 36038 ft | 455 kts | 291° |
| 2026-04-26 08:46 | 46.10340 | 20.62947 | 36039 ft | 455 kts | 291° |
| 2026-04-26 08:46 | 46.12396 | 20.54372 | 36043 ft | 454 kts | 290° |
| 2026-04-26 08:47 | 46.14121 | 20.47154 | 36044 ft | 454 kts | 290° |
| 2026-04-26 08:47 | 46.16159 | 20.38579 | 36048 ft | 454 kts | 290° |
| 2026-04-26 08:48 | 46.18107 | 20.29898 | 36056 ft | 454 kts | 289° |
| 2026-04-26 08:48 | 46.19984 | 20.21266 | 36062 ft | 452 kts | 290° |
| 2026-04-26 08:49 | 46.21884 | 20.12613 | 36061 ft | 451 kts | 290° |
| 2026-04-26 08:49 | 46.23775 | 20.03987 | 36053 ft | 449 kts | 290° |
| 2026-04-26 08:50 | 46.25645 | 19.95425 | 36057 ft | 448 kts | 290° |
| 2026-04-26 08:50 | 46.27516 | 19.86823 | 36078 ft | 448 kts | 289° |
| 2026-04-26 08:51 | 46.30300 | 19.73959 | 36066 ft | 448 kts | 289° |
| 2026-04-26 08:52 | 46.32157 | 19.65335 | 36065 ft | 449 kts | 289° |
| 2026-04-26 08:52 | 46.34011 | 19.56687 | 36075 ft | 449 kts | 289° |
| 2026-04-26 08:53 | 46.35848 | 19.48083 | 36075 ft | 450 kts | 289° |
| 2026-04-26 08:53 | 46.37690 | 19.39419 | 36082 ft | 450 kts | 289° |
| 2026-04-26 08:54 | 46.39531 | 19.30722 | 36080 ft | 451 kts | 289° |
| 2026-04-26 08:54 | 46.41367 | 19.22014 | 36094 ft | 451 kts | 289° |
| 2026-04-26 08:55 | 46.43187 | 19.13344 | 36086 ft | 451 kts | 289° |
| 2026-04-26 08:55 | 46.45012 | 19.04614 | 36090 ft | 452 kts | 289° |
| 2026-04-26 08:56 | 46.46820 | 18.95928 | 36098 ft | 452 kts | 289° |
| 2026-04-26 08:56 | 46.48631 | 18.87189 | 36104 ft | 452 kts | 289° |
| 2026-04-26 08:57 | 46.50442 | 18.78410 | 36097 ft | 453 kts | 288° |
| 2026-04-26 08:57 | 46.52234 | 18.69684 | 36117 ft | 453 kts | 288° |
| 2026-04-26 08:58 | 46.54034 | 18.60883 | 36112 ft | 454 kts | 288° |
| 2026-04-26 08:58 | 46.55831 | 18.52060 | 36116 ft | 454 kts | 288° |
| 2026-04-26 08:59 | 46.57611 | 18.43279 | 36114 ft | 455 kts | 288° |
| 2026-04-26 08:59 | 46.59391 | 18.34462 | 36123 ft | 455 kts | 288° |
| 2026-04-26 09:00 | 46.61157 | 18.25666 | 36130 ft | 455 kts | 288° |
| 2026-04-26 09:00 | 46.62930 | 18.16800 | 36133 ft | 455 kts | 288° |
| 2026-04-26 09:01 | 46.64697 | 18.07930 | 36125 ft | 455 kts | 288° |
| 2026-04-26 09:01 | 46.66440 | 17.99133 | 36132 ft | 455 kts | 287° |
| 2026-04-26 09:02 | 46.68189 | 17.90271 | 36139 ft | 454 kts | 287° |
| 2026-04-26 09:02 | 46.69929 | 17.81413 | 36136 ft | 454 kts | 287° |
| 2026-04-26 09:03 | 46.71661 | 17.72554 | 36140 ft | 455 kts | 287° |
| 2026-04-26 09:03 | 46.73377 | 17.63735 | 36145 ft | 455 kts | 287° |
| 2026-04-26 09:04 | 46.75101 | 17.54840 | 36150 ft | 455 kts | 287° |
| 2026-04-26 09:04 | 46.76822 | 17.45914 | 36153 ft | 456 kts | 287° |
| 2026-04-26 09:05 | 46.78526 | 17.37037 | 36159 ft | 456 kts | 286° |
| 2026-04-26 09:05 | 46.80230 | 17.28117 | 36145 ft | 455 kts | 286° |
| 2026-04-26 09:06 | 46.81916 | 17.19251 | 36148 ft | 456 kts | 287° |
| 2026-04-26 09:06 | 46.83610 | 17.10299 | 36166 ft | 457 kts | 286° |
| 2026-04-26 09:07 | 46.85290 | 17.01382 | 36165 ft | 456 kts | 286° |
| 2026-04-26 09:07 | 46.86968 | 16.92430 | 36159 ft | 456 kts | 286° |
| 2026-04-26 09:08 | 46.88640 | 16.83464 | 36157 ft | 457 kts | 286° |
| 2026-04-26 09:08 | 46.90301 | 16.74520 | 36155 ft | 458 kts | 286° |
| 2026-04-26 09:09 | 46.91968 | 16.65499 | 36153 ft | 458 kts | 286° |
| 2026-04-26 09:09 | 46.93628 | 16.56469 | 36140 ft | 459 kts | 285° |
| 2026-04-26 09:10 | 46.95269 | 16.47498 | 36144 ft | 459 kts | 285° |
| 2026-04-26 09:10 | 46.96916 | 16.38455 | 36150 ft | 459 kts | 285° |
| 2026-04-26 09:11 | 46.98543 | 16.29474 | 36139 ft | 458 kts | 285° |
| 2026-04-26 09:11 | 47.00165 | 16.20415 | 36147 ft | 458 kts | 284° |
| 2026-04-26 09:12 | 47.01540 | 16.11337 | 36139 ft | 458 kts | 282° |
| 2026-04-26 09:12 | 47.02827 | 16.02167 | 36128 ft | 458 kts | 282° |
| 2026-04-26 09:13 | 47.04126 | 15.93003 | 36119 ft | 458 kts | 282° |
| 2026-04-26 09:13 | 47.05442 | 15.83849 | 36128 ft | 458 kts | 282° |
| 2026-04-26 09:14 | 47.06751 | 15.74752 | 36122 ft | 458 kts | 282° |
| 2026-04-26 09:14 | 47.08064 | 15.65568 | 36131 ft | 459 kts | 282° |
| 2026-04-26 09:15 | 47.09363 | 15.56433 | 36126 ft | 460 kts | 282° |
| 2026-04-26 09:15 | 47.10663 | 15.47224 | 36129 ft | 460 kts | 282° |
| 2026-04-26 09:16 | 47.11956 | 15.38008 | 36115 ft | 460 kts | 282° |
| 2026-04-26 09:16 | 47.13242 | 15.28782 | 36126 ft | 460 kts | 282° |
| 2026-04-26 09:17 | 47.14512 | 15.19615 | 36126 ft | 460 kts | 282° |
| 2026-04-26 09:17 | 47.15782 | 15.10396 | 36125 ft | 460 kts | 282° |
| 2026-04-26 09:18 | 47.17045 | 15.01163 | 36134 ft | 460 kts | 282° |
| 2026-04-26 09:18 | 47.18293 | 14.91984 | 36152 ft | 459 kts | 282° |
| 2026-04-26 09:19 | 47.19532 | 14.82814 | 36157 ft | 459 kts | 282° |
| 2026-04-26 09:19 | 47.20770 | 14.73582 | 36156 ft | 459 kts | 281° |
| 2026-04-26 09:20 | 47.21994 | 14.64404 | 36156 ft | 458 kts | 282° |
| 2026-04-26 09:20 | 47.23216 | 14.55181 | 36153 ft | 459 kts | 281° |
| 2026-04-26 09:21 | 47.24430 | 14.45965 | 36163 ft | 458 kts | 281° |
| 2026-04-26 09:21 | 47.25635 | 14.36747 | 36171 ft | 458 kts | 281° |
| 2026-04-26 09:22 | 47.26826 | 14.27578 | 36177 ft | 458 kts | 281° |
| 2026-04-26 09:22 | 47.28016 | 14.18364 | 36188 ft | 457 kts | 281° |
| 2026-04-26 09:23 | 47.29194 | 14.09176 | 36186 ft | 455 kts | 281° |
| 2026-04-26 09:23 | 47.30359 | 14.00020 | 36192 ft | 453 kts | 281° |
| 2026-04-26 09:24 | 47.31507 | 13.90950 | 36181 ft | 452 kts | 281° |
| 2026-04-26 09:24 | 47.32658 | 13.81798 | 36197 ft | 455 kts | 281° |
| 2026-04-26 09:25 | 47.33812 | 13.72550 | 36207 ft | 461 kts | 281° |
| 2026-04-26 09:25 | 47.34961 | 13.63274 | 36203 ft | 464 kts | 281° |
| 2026-04-26 09:26 | 47.36117 | 13.53884 | 36208 ft | 464 kts | 281° |
| 2026-04-26 09:26 | 47.37255 | 13.44568 | 36204 ft | 462 kts | 281° |
| 2026-04-26 09:27 | 47.38386 | 13.35244 | 36201 ft | 459 kts | 281° |
| 2026-04-26 09:27 | 47.39503 | 13.25982 | 36207 ft | 457 kts | 281° |
| 2026-04-26 09:28 | 47.40602 | 13.16790 | 36197 ft | 455 kts | 281° |
| 2026-04-26 09:28 | 47.41697 | 13.07572 | 36204 ft | 454 kts | 281° |
| 2026-04-26 09:29 | 47.42781 | 12.98381 | 36198 ft | 454 kts | 280° |
| 2026-04-26 09:29 | 47.43853 | 12.89228 | 36206 ft | 454 kts | 280° |
| 2026-04-26 09:30 | 47.44922 | 12.80032 | 36211 ft | 455 kts | 280° |
| 2026-04-26 09:30 | 47.45988 | 12.70794 | 36215 ft | 455 kts | 280° |
| 2026-04-26 09:31 | 47.47046 | 12.61547 | 36218 ft | 456 kts | 280° |
| 2026-04-26 09:31 | 47.48097 | 12.52321 | 36217 ft | 457 kts | 279° |
| 2026-04-26 09:32 | 47.49145 | 12.43026 | 36218 ft | 457 kts | 279° |
| 2026-04-26 09:32 | 47.50178 | 12.33800 | 36211 ft | 457 kts | 279° |
| 2026-04-26 09:33 | 47.51211 | 12.24512 | 36224 ft | 457 kts | 279° |
| 2026-04-26 09:33 | 47.52234 | 12.15234 | 36227 ft | 456 kts | 279° |
| 2026-04-26 09:34 | 47.53246 | 12.06000 | 36213 ft | 456 kts | 279° |
| 2026-04-26 09:34 | 47.54101 | 11.98277 | 36213 ft | 456 kts | 280° |
| 2026-04-26 09:35 | 47.55300 | 11.89099 | 36223 ft | 456 kts | 281° |
| 2026-04-26 09:35 | 47.56554 | 11.79882 | 36219 ft | 455 kts | 281° |
| 2026-04-26 09:36 | 47.57781 | 11.70657 | 36228 ft | 455 kts | 281° |
| 2026-04-26 09:36 | 47.58975 | 11.61489 | 36221 ft | 455 kts | 281° |
| 2026-04-26 09:37 | 47.60166 | 11.52246 | 36214 ft | 455 kts | 281° |
| 2026-04-26 09:37 | 47.61341 | 11.43072 | 36237 ft | 455 kts | 281° |
| 2026-04-26 09:38 | 47.62515 | 11.33846 | 36225 ft | 455 kts | 280° |
| 2026-04-26 09:38 | 47.63683 | 11.24603 | 36236 ft | 455 kts | 280° |
| 2026-04-26 09:39 | 47.64840 | 11.15391 | 36235 ft | 456 kts | 280° |
| 2026-04-26 09:39 | 47.65989 | 11.06176 | 36223 ft | 456 kts | 280° |
| 2026-04-26 09:40 | 47.67138 | 10.96894 | 36236 ft | 456 kts | 280° |
| 2026-04-26 09:40 | 47.68280 | 10.87609 | 36240 ft | 456 kts | 280° |
| 2026-04-26 09:41 | 47.69405 | 10.78398 | 36224 ft | 456 kts | 280° |
| 2026-04-26 09:41 | 47.70529 | 10.69139 | 36228 ft | 456 kts | 280° |
| 2026-04-26 09:42 | 47.71647 | 10.59849 | 36234 ft | 455 kts | 279° |
| 2026-04-26 09:42 | 47.72758 | 10.50554 | 35820 ft | 457 kts | 279° |
| 2026-04-26 09:42 | 47.73305 | 10.45966 | 35505 ft | 455 kts | 279° |
| 2026-04-26 09:43 | 47.73854 | 10.41337 | 35217 ft | 454 kts | 279° |
| 2026-04-26 09:43 | 47.74346 | 10.36697 | 34927 ft | 453 kts | 276° |
| 2026-04-26 09:43 | 47.74574 | 10.32021 | 34635 ft | 453 kts | 271° |
| 2026-04-26 09:43 | 47.74494 | 10.27399 | 34353 ft | 452 kts | 268° |
| 2026-04-26 09:44 | 47.74356 | 10.22719 | 34049 ft | 452 kts | 268° |
| 2026-04-26 09:44 | 47.74223 | 10.18024 | 33334 ft | 456 kts | 268° |
| 2026-04-26 09:44 | 47.74099 | 10.13296 | 32380 ft | 459 kts | 268° |
| 2026-04-26 09:44 | 47.73983 | 10.08543 | 31419 ft | 460 kts | 268° |
| 2026-04-26 09:45 | 47.73871 | 10.03840 | 30659 ft | 459 kts | 268° |
| 2026-04-26 09:45 | 47.73756 | 9.99110 | 29933 ft | 456 kts | 268° |
| 2026-04-26 09:45 | 47.73638 | 9.94421 | 29198 ft | 452 kts | 268° |
| 2026-04-26 09:45 | 47.73517 | 9.89760 | 28526 ft | 448 kts | 268° |
| 2026-04-26 09:46 | 47.73395 | 9.85157 | 27875 ft | 443 kts | 268° |
| 2026-04-26 09:46 | 47.73275 | 9.80624 | 27230 ft | 440 kts | 268° |
| 2026-04-26 09:46 | 47.73153 | 9.76092 | 26593 ft | 437 kts | 268° |
| 2026-04-26 09:46 | 47.73031 | 9.71631 | 25967 ft | 434 kts | 268° |
| 2026-04-26 09:47 | 47.72908 | 9.67166 | 25361 ft | 431 kts | 267° |
| 2026-04-26 09:47 | 47.72790 | 9.62706 | 24741 ft | 429 kts | 268° |
| 2026-04-26 09:47 | 47.72679 | 9.58283 | 24121 ft | 427 kts | 268° |
| 2026-04-26 09:47 | 47.72567 | 9.53892 | 23447 ft | 426 kts | 267° |
| 2026-04-26 09:48 | 47.72433 | 9.49548 | 22793 ft | 423 kts | 267° |
| 2026-04-26 09:48 | 47.72199 | 9.45260 | 22447 ft | 407 kts | 259° |
| 2026-04-26 09:48 | 47.71298 | 9.41348 | 22345 ft | 393 kts | 243° |
| 2026-04-26 09:48 | 47.69789 | 9.38051 | 22248 ft | 380 kts | 231° |
| 2026-04-26 09:49 | 47.68137 | 9.35123 | 22019 ft | 358 kts | 231° |
| 2026-04-26 09:49 | 47.66562 | 9.32342 | 21453 ft | 346 kts | 231° |
| 2026-04-26 09:49 | 47.65054 | 9.29650 | 20716 ft | 342 kts | 232° |
| 2026-04-26 09:49 | 47.63543 | 9.26920 | 19869 ft | 341 kts | 232° |
| 2026-04-26 09:50 | 47.62043 | 9.24199 | 19042 ft | 340 kts | 232° |
| 2026-04-26 09:50 | 47.60549 | 9.21488 | 18286 ft | 337 kts | 233° |
| 2026-04-26 09:50 | 47.59281 | 9.18612 | 17483 ft | 334 kts | 251° |
| 2026-04-26 09:50 | 47.58773 | 9.15328 | 16935 ft | 330 kts | 262° |
| 2026-04-26 09:51 | 47.58403 | 9.11988 | 16585 ft | 327 kts | 262° |
| 2026-04-26 09:51 | 47.58003 | 9.08689 | 16201 ft | 325 kts | 261° |
| 2026-04-26 09:51 | 47.57619 | 9.05398 | 15789 ft | 319 kts | 266° |
| 2026-04-26 09:51 | 47.57794 | 9.02159 | 15310 ft | 318 kts | 287° |
| 2026-04-26 09:52 | 47.58600 | 8.99114 | 14867 ft | 317 kts | 293° |
| 2026-04-26 09:52 | 47.60299 | 8.93068 | 13917 ft | 322 kts | 292° |
| 2026-04-26 09:52 | 47.61148 | 8.89979 | 13408 ft | 324 kts | 292° |
| 2026-04-26 09:53 | 47.61995 | 8.86870 | 12919 ft | 325 kts | 292° |
| 2026-04-26 09:53 | 47.62835 | 8.83747 | 12431 ft | 322 kts | 289° |
| 2026-04-26 09:53 | 47.63185 | 8.80515 | 11980 ft | 320 kts | 267° |
| 2026-04-26 09:53 | 47.62678 | 8.77311 | 11539 ft | 322 kts | 249° |
| 2026-04-26 09:54 | 47.61795 | 8.74306 | 11274 ft | 316 kts | 248° |
| 2026-04-26 09:54 | 47.60938 | 8.71355 | 11134 ft | 307 kts | 248° |
| 2026-04-26 09:54 | 47.60114 | 8.68465 | 10982 ft | 300 kts | 249° |
| 2026-04-26 09:54 | 47.59316 | 8.65647 | 10872 ft | 292 kts | 248° |
| 2026-04-26 09:55 | 47.58717 | 8.62855 | 10705 ft | 278 kts | 267° |
| 2026-04-26 09:55 | 47.58979 | 8.60106 | 10623 ft | 268 kts | 293° |
| 2026-04-26 09:55 | 47.59904 | 8.57716 | 10545 ft | 274 kts | 311° |
| 2026-04-26 09:55 | 47.61238 | 8.55707 | 10433 ft | 271 kts | 318° |
| 2026-04-26 09:56 | 47.62623 | 8.53859 | 10296 ft | 265 kts | 319° |
| 2026-04-26 09:56 | 47.63987 | 8.52064 | 10146 ft | 261 kts | 319° |
| 2026-04-26 09:56 | 47.65357 | 8.50238 | 9808 ft | 266 kts | 318° |
| 2026-04-26 09:56 | 47.66727 | 8.48381 | 9487 ft | 266 kts | 318° |
| 2026-04-26 09:57 | 47.68073 | 8.46545 | 9174 ft | 265 kts | 318° |
| 2026-04-26 09:57 | 47.69427 | 8.44691 | 8855 ft | 264 kts | 318° |
| 2026-04-26 09:57 | 47.70774 | 8.42849 | 8566 ft | 262 kts | 318° |
| 2026-04-26 09:57 | 47.72110 | 8.41015 | 8264 ft | 261 kts | 318° |
| 2026-04-26 09:58 | 47.73424 | 8.39212 | 7864 ft | 254 kts | 319° |
| 2026-04-26 09:58 | 47.74691 | 8.37478 | 7497 ft | 246 kts | 318° |
| 2026-04-26 09:58 | 47.75920 | 8.35790 | 7213 ft | 235 kts | 318° |
| 2026-04-26 09:58 | 47.77104 | 8.34167 | 6869 ft | 226 kts | 319° |
| 2026-04-26 09:59 | 47.78245 | 8.32601 | 6458 ft | 221 kts | 318° |
| 2026-04-26 09:59 | 47.79348 | 8.31030 | 6053 ft | 218 kts | 308° |
| 2026-04-26 09:59 | 47.79900 | 8.28964 | 5989 ft | 217 kts | 272° |
| 2026-04-26 09:59 | 47.79562 | 8.26821 | 5986 ft | 213 kts | 237° |
| 2026-04-26 10:00 | 47.78662 | 8.25087 | 6022 ft | 213 kts | 228° |
| 2026-04-26 10:00 | 47.77723 | 8.23387 | 5946 ft | 212 kts | 219° |
| 2026-04-26 10:00 | 47.76436 | 8.22477 | 6016 ft | 208 kts | 184° |
| 2026-04-26 10:00 | 47.74994 | 8.22749 | 6019 ft | 214 kts | 164° |
| 2026-04-26 10:01 | 47.73581 | 8.23302 | 5959 ft | 207 kts | 163° |
| 2026-04-26 10:01 | 47.72199 | 8.23866 | 5982 ft | 206 kts | 163° |
| 2026-04-26 10:01 | 47.70809 | 8.24419 | 5974 ft | 206 kts | 162° |
| 2026-04-26 10:01 | 47.69435 | 8.24995 | 5976 ft | 202 kts | 154° |
| 2026-04-26 10:02 | 47.68311 | 8.26170 | 5972 ft | 193 kts | 134° |
| 2026-04-26 10:02 | 47.67316 | 8.27561 | 6020 ft | 204 kts | 136° |
| 2026-04-26 10:02 | 47.66245 | 8.28961 | 5971 ft | 200 kts | 137° |
| 2026-04-26 10:02 | 47.65254 | 8.30297 | 5925 ft | 189 kts | 134° |
| 2026-04-26 10:03 | 47.64288 | 8.31633 | 5658 ft | 189 kts | 135° |
| 2026-04-26 10:03 | 47.63354 | 8.32911 | 5407 ft | 181 kts | 135° |
| 2026-04-26 10:03 | 47.62423 | 8.34191 | 5187 ft | 183 kts | 135° |
| 2026-04-26 10:03 | 47.61486 | 8.35460 | 4964 ft | 181 kts | 134° |
| 2026-04-26 10:04 | 47.60566 | 8.36733 | 4664 ft | 179 kts | 135° |
| 2026-04-26 10:04 | 47.59674 | 8.37955 | 4463 ft | 173 kts | 135° |
| 2026-04-26 10:04 | 47.58783 | 8.39173 | 4246 ft | 176 kts | 134° |
| 2026-04-26 10:04 | 47.57896 | 8.40389 | 4050 ft | 176 kts | 134° |
| 2026-04-26 10:05 | 47.56989 | 8.41623 | 3752 ft | 172 kts | 134° |
| 2026-04-26 10:05 | 47.56117 | 8.42822 | 3569 ft | 169 kts | 133° |
| 2026-04-26 10:05 | 47.55270 | 8.43976 | 3347 ft | 156 kts | 133° |
| 2026-04-26 10:05 | 47.54481 | 8.45085 | 3126 ft | 157 kts | 131° |
| 2026-04-26 10:06 | 47.53674 | 8.46175 | 2920 ft | 159 kts | 135° |
| 2026-04-26 10:06 | 47.52854 | 8.47278 | 2725 ft | 158 kts | 135° |
| 2026-04-26 10:06 | 47.52056 | 8.48363 | 2474 ft | 152 kts | 134° |
| 2026-04-26 10:06 | 47.51272 | 8.49440 | 2269 ft | 153 kts | 133° |
| 2026-04-26 10:07 | 47.50493 | 8.50504 | 2082 ft | 156 kts | 134° |
| 2026-04-26 10:07 | 47.49684 | 8.51601 | 1865 ft | 159 kts | 134° |
| 2026-04-26 10:07 | 47.48862 | 8.52715 | 1640 ft | 160 kts | 133° |
| 2026-04-26 10:07 | 47.48051 | 8.53821 | 1438 ft | 157 kts | 132° |
| 2026-04-26 10:08 | 47.47313 | 8.54838 | 1405 ft | 132 kts | 137° |
| 2026-04-26 10:08 | 47.46749 | 8.55601 | 1407 ft | 87 kts | 137° |
| 2026-04-26 10:08 | 47.46483 | 8.55918 | 1410 ft | 31 kts | 162° |
| 2026-04-26 10:08 | 47.46350 | 8.55965 | 1413 ft | 18 kts | 166° |
| 2026-04-26 10:09 | 47.46265 | 8.55995 | 1416 ft | 11 kts | 167° |
| 2026-04-26 10:09 | 47.46187 | 8.56003 | 1413 ft | 11 kts | 181° |
| 2026-04-26 10:09 | 47.46109 | 8.55993 | 1415 ft | 11 kts | 186° |
| 2026-04-26 10:09 | 47.46030 | 8.55980 | 1414 ft | 12 kts | 186° |
| 2026-04-26 10:10 | 47.45963 | 8.55965 | 1413 ft | 8 kts | 199° |
| 2026-04-26 10:10 | 47.45940 | 8.55886 | 1415 ft | 9 kts | 266° |
| 2026-04-26 10:10 | 47.45946 | 8.55779 | 1409 ft | 11 kts | 276° |
| 2026-04-26 10:10 | 47.45955 | 8.55652 | 1407 ft | 13 kts | 277° |
| 2026-04-26 10:11 | 47.45965 | 8.55507 | 1413 ft | 15 kts | 276° |
| 2026-04-26 10:11 | 47.45979 | 8.55436 | 1413 ft | 5 kts | 321° |
| 2026-04-26 10:11 | 47.46016 | 8.55428 | 1407 ft | 3 kts | 3° |
| 2026-04-26 10:11 | 47.46037 | 8.55430 | 1406 ft | 3 kts | 5° |
| 2026-04-26 10:12 | 47.46055 | 8.55433 | 1408 ft | 2 kts | 6° |
| 2026-04-26 10:12 | 47.46056 | 8.55433 | 1408 ft | 0 kts | 6° |